<?xml version="1.0" encoding="UTF-8" standalone="no" ?>
<gpx xmlns="http://www.topografix.com/GPX/1/1" xmlns:xsi="http://www.w3.org/2001/XMLSchema-instance" xsi:schemaLocation="http://www.topografix.com/GPX/1/1 http://www.topografix.com/GPX/1/1/gpx.xsd" version="1.1" creator="VisuGPX - https://www.visugpx.com">
  <metadata>
    <name>Dent de Crolles</name>
    <desc><![CDATA[

]]></desc>
  </metadata>
  <trk>
    <name><![CDATA[Dent de Crolles]]></name>
    <extensions>
      <line xmlns="http://www.topografix.com/GPX/gpx_style/0/2">
        <color>0000FF</color>
        <width>4</width>
      </line>
    </extensions>
    <trkseg>
      <trkpt lat="45.29654" lon="5.84558">
        <ele>1237.4379882812</ele>
        <time>2017-01-28T08:18:08Z</time>
      </trkpt>
      <trkpt lat="45.2966" lon="5.84551">
        <ele>1229.4379882812</ele>
        <time>2017-01-28T08:18:44Z</time>
      </trkpt>
      <trkpt lat="45.29666" lon="5.84546">
        <ele>1227.4379882812</ele>
        <time>2017-01-28T08:18:52Z</time>
      </trkpt>
      <trkpt lat="45.29674" lon="5.84541">
        <ele>1226.4379882812</ele>
        <time>2017-01-28T08:18:57Z</time>
      </trkpt>
      <trkpt lat="45.29679" lon="5.84533">
        <ele>1225.4379882812</ele>
        <time>2017-01-28T08:19:25Z</time>
      </trkpt>
      <trkpt lat="45.29687" lon="5.84529">
        <ele>1224.4379882812</ele>
        <time>2017-01-28T08:19:30Z</time>
      </trkpt>
      <trkpt lat="45.29694" lon="5.8453">
        <ele>1227.4379882812</ele>
        <time>2017-01-28T08:19:38Z</time>
      </trkpt>
      <trkpt lat="45.29704" lon="5.8453">
        <ele>1227.4389648438</ele>
        <time>2017-01-28T08:19:46Z</time>
      </trkpt>
      <trkpt lat="45.29711" lon="5.84526">
        <ele>1226.4389648438</ele>
        <time>2017-01-28T08:19:51Z</time>
      </trkpt>
      <trkpt lat="45.29718" lon="5.84523">
        <ele>1224.4389648438</ele>
        <time>2017-01-28T08:19:56Z</time>
      </trkpt>
      <trkpt lat="45.29733" lon="5.84522">
        <ele>1230.4389648438</ele>
        <time>2017-01-28T08:20:16Z</time>
      </trkpt>
      <trkpt lat="45.29739" lon="5.84517">
        <ele>1235.4389648438</ele>
        <time>2017-01-28T08:20:26Z</time>
      </trkpt>
      <trkpt lat="45.29746" lon="5.8451">
        <ele>1240.4389648438</ele>
        <time>2017-01-28T08:20:57Z</time>
      </trkpt>
      <trkpt lat="45.29753" lon="5.84509">
        <ele>1242.4389648438</ele>
        <time>2017-01-28T08:21:03Z</time>
      </trkpt>
      <trkpt lat="45.29761" lon="5.8451">
        <ele>1246.4389648438</ele>
        <time>2017-01-28T08:21:13Z</time>
      </trkpt>
      <trkpt lat="45.29769" lon="5.8451">
        <ele>1250.4389648438</ele>
        <time>2017-01-28T08:21:28Z</time>
      </trkpt>
      <trkpt lat="45.29777" lon="5.84513">
        <ele>1247.4389648438</ele>
        <time>2017-01-28T08:21:33Z</time>
      </trkpt>
      <trkpt lat="45.29783" lon="5.84519">
        <ele>1251.4389648438</ele>
        <time>2017-01-28T08:22:24Z</time>
      </trkpt>
      <trkpt lat="45.2979" lon="5.84519">
        <ele>1255.4389648438</ele>
        <time>2017-01-28T08:22:31Z</time>
      </trkpt>
      <trkpt lat="45.29799" lon="5.8452">
        <ele>1255.4389648438</ele>
        <time>2017-01-28T08:22:45Z</time>
      </trkpt>
      <trkpt lat="45.29808" lon="5.84517">
        <ele>1260.4389648438</ele>
        <time>2017-01-28T08:22:50Z</time>
      </trkpt>
      <trkpt lat="45.29814" lon="5.84513">
        <ele>1261.4389648438</ele>
        <time>2017-01-28T08:22:58Z</time>
      </trkpt>
      <trkpt lat="45.29821" lon="5.84509">
        <ele>1263.4389648438</ele>
        <time>2017-01-28T08:23:06Z</time>
      </trkpt>
      <trkpt lat="45.2983" lon="5.84506">
        <ele>1271.4389648438</ele>
        <time>2017-01-28T08:23:35Z</time>
      </trkpt>
      <trkpt lat="45.29837" lon="5.84504">
        <ele>1268.4389648438</ele>
        <time>2017-01-28T08:23:42Z</time>
      </trkpt>
      <trkpt lat="45.29844" lon="5.84502">
        <ele>1276.4389648438</ele>
        <time>2017-01-28T08:23:51Z</time>
      </trkpt>
      <trkpt lat="45.29853" lon="5.84505">
        <ele>1280.4389648438</ele>
        <time>2017-01-28T08:24:17Z</time>
      </trkpt>
      <trkpt lat="45.29861" lon="5.84503">
        <ele>1287.4389648438</ele>
        <time>2017-01-28T08:24:38Z</time>
      </trkpt>
      <trkpt lat="45.29869" lon="5.84502">
        <ele>1290.4389648438</ele>
        <time>2017-01-28T08:25:02Z</time>
      </trkpt>
      <trkpt lat="45.29876" lon="5.84498">
        <ele>1297.4389648438</ele>
        <time>2017-01-28T08:25:20Z</time>
      </trkpt>
      <trkpt lat="45.29885" lon="5.84497">
        <ele>1295.4389648438</ele>
        <time>2017-01-28T08:25:32Z</time>
      </trkpt>
      <trkpt lat="45.29892" lon="5.84495">
        <ele>1298.4389648438</ele>
        <time>2017-01-28T08:25:37Z</time>
      </trkpt>
      <trkpt lat="45.299" lon="5.84493">
        <ele>1304.4389648438</ele>
        <time>2017-01-28T08:26:04Z</time>
      </trkpt>
      <trkpt lat="45.29909" lon="5.84495">
        <ele>1306.4389648438</ele>
        <time>2017-01-28T08:26:11Z</time>
      </trkpt>
      <trkpt lat="45.29915" lon="5.84498">
        <ele>1309.4389648438</ele>
        <time>2017-01-28T08:26:20Z</time>
      </trkpt>
      <trkpt lat="45.29922" lon="5.84502">
        <ele>1310.4389648438</ele>
        <time>2017-01-28T08:26:29Z</time>
      </trkpt>
      <trkpt lat="45.29929" lon="5.84506">
        <ele>1313.4389648438</ele>
        <time>2017-01-28T08:26:38Z</time>
      </trkpt>
      <trkpt lat="45.29937" lon="5.84508">
        <ele>1316.4389648438</ele>
        <time>2017-01-28T08:27:11Z</time>
      </trkpt>
      <trkpt lat="45.29944" lon="5.84511">
        <ele>1319.4389648438</ele>
        <time>2017-01-28T08:27:17Z</time>
      </trkpt>
      <trkpt lat="45.29952" lon="5.84513">
        <ele>1321.4389648438</ele>
        <time>2017-01-28T08:27:25Z</time>
      </trkpt>
      <trkpt lat="45.29959" lon="5.84515">
        <ele>1325.4389648438</ele>
        <time>2017-01-28T08:27:51Z</time>
      </trkpt>
      <trkpt lat="45.29967" lon="5.84512">
        <ele>1328.4389648438</ele>
        <time>2017-01-28T08:27:57Z</time>
      </trkpt>
      <trkpt lat="45.29975" lon="5.84509">
        <ele>1331.4389648438</ele>
        <time>2017-01-28T08:28:13Z</time>
      </trkpt>
      <trkpt lat="45.29983" lon="5.84509">
        <ele>1331.4389648438</ele>
        <time>2017-01-28T08:28:21Z</time>
      </trkpt>
      <trkpt lat="45.2999" lon="5.84508">
        <ele>1333.4389648438</ele>
        <time>2017-01-28T08:28:40Z</time>
      </trkpt>
      <trkpt lat="45.29996" lon="5.84515">
        <ele>1335.4389648438</ele>
        <time>2017-01-28T08:28:44Z</time>
      </trkpt>
      <trkpt lat="45.30004" lon="5.84518">
        <ele>1335.4389648438</ele>
        <time>2017-01-28T08:28:49Z</time>
      </trkpt>
      <trkpt lat="45.30011" lon="5.84516">
        <ele>1337.4389648438</ele>
        <time>2017-01-28T08:29:00Z</time>
      </trkpt>
      <trkpt lat="45.30018" lon="5.84511">
        <ele>1339.4389648438</ele>
        <time>2017-01-28T08:29:26Z</time>
      </trkpt>
      <trkpt lat="45.30026" lon="5.84512">
        <ele>1341.4389648438</ele>
        <time>2017-01-28T08:29:47Z</time>
      </trkpt>
      <trkpt lat="45.30043" lon="5.84512">
        <ele>1342.4389648438</ele>
        <time>2017-01-28T08:29:57Z</time>
      </trkpt>
      <trkpt lat="45.30051" lon="5.84511">
        <ele>1350.4389648438</ele>
        <time>2017-01-28T08:30:20Z</time>
      </trkpt>
      <trkpt lat="45.3006" lon="5.84511">
        <ele>1354.4389648438</ele>
        <time>2017-01-28T08:30:25Z</time>
      </trkpt>
      <trkpt lat="45.30067" lon="5.84509">
        <ele>1353.4389648438</ele>
        <time>2017-01-28T08:30:32Z</time>
      </trkpt>
      <trkpt lat="45.30074" lon="5.84506">
        <ele>1360.4389648438</ele>
        <time>2017-01-28T08:30:40Z</time>
      </trkpt>
      <trkpt lat="45.30082" lon="5.84501">
        <ele>1360.4389648438</ele>
        <time>2017-01-28T08:30:52Z</time>
      </trkpt>
      <trkpt lat="45.3009" lon="5.84496">
        <ele>1364.4389648438</ele>
        <time>2017-01-28T08:30:59Z</time>
      </trkpt>
      <trkpt lat="45.30097" lon="5.845">
        <ele>1369.4389648438</ele>
        <time>2017-01-28T08:31:09Z</time>
      </trkpt>
      <trkpt lat="45.30104" lon="5.84509">
        <ele>1375.4389648438</ele>
        <time>2017-01-28T08:31:24Z</time>
      </trkpt>
      <trkpt lat="45.30113" lon="5.84513">
        <ele>1379.4389648438</ele>
        <time>2017-01-28T08:32:18Z</time>
      </trkpt>
      <trkpt lat="45.3012" lon="5.84515">
        <ele>1387.4389648438</ele>
        <time>2017-01-28T08:32:30Z</time>
      </trkpt>
      <trkpt lat="45.30128" lon="5.84513">
        <ele>1398.4389648438</ele>
        <time>2017-01-28T08:32:55Z</time>
      </trkpt>
      <trkpt lat="45.30155" lon="5.84527">
        <ele>1391.4389648438</ele>
        <time>2017-01-28T08:33:04Z</time>
      </trkpt>
      <trkpt lat="45.30163" lon="5.84523">
        <ele>1392.4389648438</ele>
        <time>2017-01-28T08:33:10Z</time>
      </trkpt>
      <trkpt lat="45.30169" lon="5.84529">
        <ele>1400.4389648438</ele>
        <time>2017-01-28T08:33:21Z</time>
      </trkpt>
      <trkpt lat="45.30176" lon="5.84534">
        <ele>1403.4389648438</ele>
        <time>2017-01-28T08:34:01Z</time>
      </trkpt>
      <trkpt lat="45.30184" lon="5.84535">
        <ele>1401.4399414062</ele>
        <time>2017-01-28T08:34:09Z</time>
      </trkpt>
      <trkpt lat="45.30192" lon="5.84537">
        <ele>1409.4399414062</ele>
        <time>2017-01-28T08:34:17Z</time>
      </trkpt>
      <trkpt lat="45.30199" lon="5.84544">
        <ele>1412.4399414062</ele>
        <time>2017-01-28T08:34:39Z</time>
      </trkpt>
      <trkpt lat="45.30206" lon="5.84548">
        <ele>1414.4399414062</ele>
        <time>2017-01-28T08:34:46Z</time>
      </trkpt>
      <trkpt lat="45.30214" lon="5.84547">
        <ele>1421.4399414062</ele>
        <time>2017-01-28T08:35:24Z</time>
      </trkpt>
      <trkpt lat="45.30221" lon="5.84544">
        <ele>1424.4399414062</ele>
        <time>2017-01-28T08:35:33Z</time>
      </trkpt>
      <trkpt lat="45.30229" lon="5.84539">
        <ele>1426.4399414062</ele>
        <time>2017-01-28T08:35:42Z</time>
      </trkpt>
      <trkpt lat="45.30237" lon="5.84538">
        <ele>1422.4399414062</ele>
        <time>2017-01-28T08:35:51Z</time>
      </trkpt>
      <trkpt lat="45.30245" lon="5.84537">
        <ele>1428.4399414062</ele>
        <time>2017-01-28T08:36:00Z</time>
      </trkpt>
      <trkpt lat="45.3025" lon="5.8453">
        <ele>1425.4399414062</ele>
        <time>2017-01-28T08:36:13Z</time>
      </trkpt>
      <trkpt lat="45.30258" lon="5.84529">
        <ele>1431.4399414062</ele>
        <time>2017-01-28T08:36:22Z</time>
      </trkpt>
      <trkpt lat="45.30265" lon="5.84525">
        <ele>1435.4399414062</ele>
        <time>2017-01-28T08:36:34Z</time>
      </trkpt>
      <trkpt lat="45.30273" lon="5.84522">
        <ele>1435.4399414062</ele>
        <time>2017-01-28T08:36:41Z</time>
      </trkpt>
      <trkpt lat="45.30279" lon="5.84518">
        <ele>1434.4399414062</ele>
        <time>2017-01-28T08:36:57Z</time>
      </trkpt>
      <trkpt lat="45.30287" lon="5.84516">
        <ele>1442.4399414062</ele>
        <time>2017-01-28T08:37:11Z</time>
      </trkpt>
      <trkpt lat="45.30295" lon="5.84512">
        <ele>1447.4399414062</ele>
        <time>2017-01-28T08:37:18Z</time>
      </trkpt>
      <trkpt lat="45.30302" lon="5.84511">
        <ele>1448.4399414062</ele>
        <time>2017-01-28T08:37:31Z</time>
      </trkpt>
      <trkpt lat="45.3031" lon="5.84514">
        <ele>1450.4399414062</ele>
        <time>2017-01-28T08:38:07Z</time>
      </trkpt>
      <trkpt lat="45.30317" lon="5.84513">
        <ele>1453.4399414062</ele>
        <time>2017-01-28T08:38:25Z</time>
      </trkpt>
      <trkpt lat="45.30322" lon="5.84522">
        <ele>1459.4399414062</ele>
        <time>2017-01-28T08:39:26Z</time>
      </trkpt>
      <trkpt lat="45.30329" lon="5.84524">
        <ele>1462.4399414062</ele>
        <time>2017-01-28T08:39:39Z</time>
      </trkpt>
      <trkpt lat="45.30338" lon="5.84523">
        <ele>1465.4399414062</ele>
        <time>2017-01-28T08:40:00Z</time>
      </trkpt>
      <trkpt lat="45.30345" lon="5.84523">
        <ele>1453.4399414062</ele>
        <time>2017-01-28T08:40:06Z</time>
      </trkpt>
      <trkpt lat="45.30354" lon="5.84522">
        <ele>1461.4399414062</ele>
        <time>2017-01-28T08:40:12Z</time>
      </trkpt>
      <trkpt lat="45.30361" lon="5.84523">
        <ele>1462.4399414062</ele>
        <time>2017-01-28T08:40:19Z</time>
      </trkpt>
      <trkpt lat="45.30368" lon="5.84523">
        <ele>1466.4399414062</ele>
        <time>2017-01-28T08:40:36Z</time>
      </trkpt>
      <trkpt lat="45.30376" lon="5.84523">
        <ele>1467.4399414062</ele>
        <time>2017-01-28T08:40:43Z</time>
      </trkpt>
      <trkpt lat="45.30384" lon="5.84522">
        <ele>1465.4399414062</ele>
        <time>2017-01-28T08:40:53Z</time>
      </trkpt>
      <trkpt lat="45.30392" lon="5.84521">
        <ele>1465.4399414062</ele>
        <time>2017-01-28T08:40:58Z</time>
      </trkpt>
      <trkpt lat="45.30399" lon="5.8452">
        <ele>1468.4399414062</ele>
        <time>2017-01-28T08:41:06Z</time>
      </trkpt>
      <trkpt lat="45.30407" lon="5.84519">
        <ele>1471.4399414062</ele>
        <time>2017-01-28T08:41:15Z</time>
      </trkpt>
      <trkpt lat="45.30414" lon="5.84518">
        <ele>1478.4399414062</ele>
        <time>2017-01-28T08:41:27Z</time>
      </trkpt>
      <trkpt lat="45.30422" lon="5.84521">
        <ele>1478.4399414062</ele>
        <time>2017-01-28T08:41:34Z</time>
      </trkpt>
      <trkpt lat="45.30429" lon="5.84517">
        <ele>1480.4399414062</ele>
        <time>2017-01-28T08:41:44Z</time>
      </trkpt>
      <trkpt lat="45.30437" lon="5.84515">
        <ele>1481.4399414062</ele>
        <time>2017-01-28T08:41:54Z</time>
      </trkpt>
      <trkpt lat="45.30445" lon="5.84515">
        <ele>1483.4399414062</ele>
        <time>2017-01-28T08:42:02Z</time>
      </trkpt>
      <trkpt lat="45.30452" lon="5.84514">
        <ele>1486.4399414062</ele>
        <time>2017-01-28T08:42:12Z</time>
      </trkpt>
      <trkpt lat="45.30459" lon="5.84518">
        <ele>1494.4399414062</ele>
        <time>2017-01-28T08:42:44Z</time>
      </trkpt>
      <trkpt lat="45.30458" lon="5.84529">
        <ele>1499.4399414062</ele>
        <time>2017-01-28T08:42:57Z</time>
      </trkpt>
      <trkpt lat="45.30457" lon="5.84539">
        <ele>1502.4399414062</ele>
        <time>2017-01-28T08:43:08Z</time>
      </trkpt>
      <trkpt lat="45.30453" lon="5.84548">
        <ele>1506.4399414062</ele>
        <time>2017-01-28T08:43:30Z</time>
      </trkpt>
      <trkpt lat="45.30458" lon="5.84557">
        <ele>1510.4399414062</ele>
        <time>2017-01-28T08:48:28Z</time>
      </trkpt>
      <trkpt lat="45.30466" lon="5.84559">
        <ele>1509.4399414062</ele>
        <time>2017-01-28T08:48:37Z</time>
      </trkpt>
      <trkpt lat="45.30473" lon="5.84563">
        <ele>1509.4399414062</ele>
        <time>2017-01-28T08:48:48Z</time>
      </trkpt>
      <trkpt lat="45.3048" lon="5.84562">
        <ele>1509.4399414062</ele>
        <time>2017-01-28T08:48:53Z</time>
      </trkpt>
      <trkpt lat="45.30487" lon="5.84566">
        <ele>1508.4399414062</ele>
        <time>2017-01-28T08:48:59Z</time>
      </trkpt>
      <trkpt lat="45.30494" lon="5.84563">
        <ele>1524.4399414062</ele>
        <time>2017-01-28T08:49:11Z</time>
      </trkpt>
      <trkpt lat="45.30503" lon="5.84561">
        <ele>1527.4399414062</ele>
        <time>2017-01-28T08:49:20Z</time>
      </trkpt>
      <trkpt lat="45.30511" lon="5.84559">
        <ele>1527.4399414062</ele>
        <time>2017-01-28T08:49:42Z</time>
      </trkpt>
      <trkpt lat="45.30518" lon="5.84554">
        <ele>1528.4399414062</ele>
        <time>2017-01-28T08:50:03Z</time>
      </trkpt>
      <trkpt lat="45.30526" lon="5.84555">
        <ele>1528.4399414062</ele>
        <time>2017-01-28T08:50:10Z</time>
      </trkpt>
      <trkpt lat="45.30534" lon="5.84557">
        <ele>1527.4399414062</ele>
        <time>2017-01-28T08:50:16Z</time>
      </trkpt>
      <trkpt lat="45.30541" lon="5.8456">
        <ele>1531.4399414062</ele>
        <time>2017-01-28T08:50:23Z</time>
      </trkpt>
      <trkpt lat="45.30548" lon="5.8456">
        <ele>1536.4399414062</ele>
        <time>2017-01-28T08:50:32Z</time>
      </trkpt>
      <trkpt lat="45.30557" lon="5.8456">
        <ele>1540.4399414062</ele>
        <time>2017-01-28T08:50:45Z</time>
      </trkpt>
      <trkpt lat="45.30564" lon="5.84561">
        <ele>1541.4399414062</ele>
        <time>2017-01-28T08:50:53Z</time>
      </trkpt>
      <trkpt lat="45.30571" lon="5.84565">
        <ele>1543.4399414062</ele>
        <time>2017-01-28T08:51:02Z</time>
      </trkpt>
      <trkpt lat="45.30579" lon="5.84564">
        <ele>1546.4399414062</ele>
        <time>2017-01-28T08:51:11Z</time>
      </trkpt>
      <trkpt lat="45.30587" lon="5.84565">
        <ele>1546.4399414062</ele>
        <time>2017-01-28T08:51:23Z</time>
      </trkpt>
      <trkpt lat="45.30594" lon="5.84569">
        <ele>1549.4399414062</ele>
        <time>2017-01-28T08:51:31Z</time>
      </trkpt>
      <trkpt lat="45.30601" lon="5.84573">
        <ele>1553.4399414062</ele>
        <time>2017-01-28T08:51:41Z</time>
      </trkpt>
      <trkpt lat="45.30608" lon="5.84578">
        <ele>1557.4399414062</ele>
        <time>2017-01-28T08:52:01Z</time>
      </trkpt>
      <trkpt lat="45.30616" lon="5.84582">
        <ele>1559.4399414062</ele>
        <time>2017-01-28T08:52:07Z</time>
      </trkpt>
      <trkpt lat="45.30622" lon="5.84588">
        <ele>1559.4399414062</ele>
        <time>2017-01-28T08:52:26Z</time>
      </trkpt>
      <trkpt lat="45.30621" lon="5.84599">
        <ele>1564.4410400391</ele>
        <time>2017-01-28T08:52:41Z</time>
      </trkpt>
      <trkpt lat="45.30626" lon="5.84607">
        <ele>1566.4410400391</ele>
        <time>2017-01-28T08:53:11Z</time>
      </trkpt>
      <trkpt lat="45.3064" lon="5.84614">
        <ele>1572.4410400391</ele>
        <time>2017-01-28T08:53:21Z</time>
      </trkpt>
      <trkpt lat="45.3065" lon="5.8462">
        <ele>1574.4410400391</ele>
        <time>2017-01-28T08:53:41Z</time>
      </trkpt>
      <trkpt lat="45.30649" lon="5.8463">
        <ele>1582.4410400391</ele>
        <time>2017-01-28T08:54:06Z</time>
      </trkpt>
      <trkpt lat="45.30647" lon="5.84641">
        <ele>1582.4410400391</ele>
        <time>2017-01-28T08:54:23Z</time>
      </trkpt>
      <trkpt lat="45.30651" lon="5.8465">
        <ele>1588.4410400391</ele>
        <time>2017-01-28T08:54:43Z</time>
      </trkpt>
      <trkpt lat="45.30651" lon="5.84661">
        <ele>1587.4410400391</ele>
        <time>2017-01-28T08:55:17Z</time>
      </trkpt>
      <trkpt lat="45.30648" lon="5.84671">
        <ele>1588.4410400391</ele>
        <time>2017-01-28T08:55:28Z</time>
      </trkpt>
      <trkpt lat="45.30642" lon="5.84679">
        <ele>1594.4410400391</ele>
        <time>2017-01-28T08:55:45Z</time>
      </trkpt>
      <trkpt lat="45.30638" lon="5.84689">
        <ele>1598.4410400391</ele>
        <time>2017-01-28T08:56:03Z</time>
      </trkpt>
      <trkpt lat="45.30635" lon="5.84698">
        <ele>1600.4410400391</ele>
        <time>2017-01-28T08:56:45Z</time>
      </trkpt>
      <trkpt lat="45.30642" lon="5.84708">
        <ele>1601.4410400391</ele>
        <time>2017-01-28T08:56:57Z</time>
      </trkpt>
      <trkpt lat="45.30649" lon="5.84711">
        <ele>1602.4410400391</ele>
        <time>2017-01-28T08:57:09Z</time>
      </trkpt>
      <trkpt lat="45.30657" lon="5.84713">
        <ele>1603.4410400391</ele>
        <time>2017-01-28T08:57:15Z</time>
      </trkpt>
      <trkpt lat="45.30664" lon="5.84716">
        <ele>1603.4410400391</ele>
        <time>2017-01-28T08:57:24Z</time>
      </trkpt>
      <trkpt lat="45.30671" lon="5.84719">
        <ele>1607.4410400391</ele>
        <time>2017-01-28T08:57:41Z</time>
      </trkpt>
      <trkpt lat="45.30679" lon="5.8472">
        <ele>1614.4410400391</ele>
        <time>2017-01-28T08:57:50Z</time>
      </trkpt>
      <trkpt lat="45.30688" lon="5.84722">
        <ele>1616.4410400391</ele>
        <time>2017-01-28T08:58:01Z</time>
      </trkpt>
      <trkpt lat="45.30696" lon="5.84722">
        <ele>1618.4410400391</ele>
        <time>2017-01-28T08:58:12Z</time>
      </trkpt>
      <trkpt lat="45.30704" lon="5.84723">
        <ele>1620.4410400391</ele>
        <time>2017-01-28T08:58:21Z</time>
      </trkpt>
      <trkpt lat="45.30712" lon="5.84724">
        <ele>1624.4410400391</ele>
        <time>2017-01-28T08:58:41Z</time>
      </trkpt>
      <trkpt lat="45.30711" lon="5.84734">
        <ele>1622.4410400391</ele>
        <time>2017-01-28T08:59:08Z</time>
      </trkpt>
      <trkpt lat="45.30706" lon="5.84741">
        <ele>1627.4410400391</ele>
        <time>2017-01-28T08:59:17Z</time>
      </trkpt>
      <trkpt lat="45.30703" lon="5.84752">
        <ele>1628.4410400391</ele>
        <time>2017-01-28T08:59:40Z</time>
      </trkpt>
      <trkpt lat="45.30699" lon="5.84761">
        <ele>1628.4410400391</ele>
        <time>2017-01-28T08:59:53Z</time>
      </trkpt>
      <trkpt lat="45.30692" lon="5.84767">
        <ele>1633.4410400391</ele>
        <time>2017-01-28T09:00:03Z</time>
      </trkpt>
      <trkpt lat="45.30688" lon="5.84775">
        <ele>1633.4410400391</ele>
        <time>2017-01-28T09:00:13Z</time>
      </trkpt>
      <trkpt lat="45.30682" lon="5.84782">
        <ele>1638.4410400391</ele>
        <time>2017-01-28T09:00:25Z</time>
      </trkpt>
      <trkpt lat="45.30679" lon="5.84792">
        <ele>1638.4410400391</ele>
        <time>2017-01-28T09:00:45Z</time>
      </trkpt>
      <trkpt lat="45.30676" lon="5.84802">
        <ele>1640.4410400391</ele>
        <time>2017-01-28T09:01:05Z</time>
      </trkpt>
      <trkpt lat="45.30685" lon="5.84801">
        <ele>1639.4410400391</ele>
        <time>2017-01-28T09:01:13Z</time>
      </trkpt>
      <trkpt lat="45.30692" lon="5.84802">
        <ele>1641.4410400391</ele>
        <time>2017-01-28T09:01:23Z</time>
      </trkpt>
      <trkpt lat="45.307" lon="5.84802">
        <ele>1644.4410400391</ele>
        <time>2017-01-28T09:01:32Z</time>
      </trkpt>
      <trkpt lat="45.30696" lon="5.84811">
        <ele>1649.4410400391</ele>
        <time>2017-01-28T09:02:16Z</time>
      </trkpt>
      <trkpt lat="45.30697" lon="5.84822">
        <ele>1657.4410400391</ele>
        <time>2017-01-28T09:03:27Z</time>
      </trkpt>
      <trkpt lat="45.30703" lon="5.84827">
        <ele>1664.4410400391</ele>
        <time>2017-01-28T09:03:40Z</time>
      </trkpt>
      <trkpt lat="45.30707" lon="5.84835">
        <ele>1665.4410400391</ele>
        <time>2017-01-28T09:04:08Z</time>
      </trkpt>
      <trkpt lat="45.30713" lon="5.84843">
        <ele>1671.4410400391</ele>
        <time>2017-01-28T09:04:26Z</time>
      </trkpt>
      <trkpt lat="45.30717" lon="5.84851">
        <ele>1674.4410400391</ele>
        <time>2017-01-28T09:05:05Z</time>
      </trkpt>
      <trkpt lat="45.30716" lon="5.84862">
        <ele>1682.4410400391</ele>
        <time>2017-01-28T09:05:30Z</time>
      </trkpt>
      <trkpt lat="45.30722" lon="5.84867">
        <ele>1682.4410400391</ele>
        <time>2017-01-28T09:05:42Z</time>
      </trkpt>
      <trkpt lat="45.30729" lon="5.84873">
        <ele>1680.4410400391</ele>
        <time>2017-01-28T09:05:53Z</time>
      </trkpt>
      <trkpt lat="45.30737" lon="5.84878">
        <ele>1686.4410400391</ele>
        <time>2017-01-28T09:06:02Z</time>
      </trkpt>
      <trkpt lat="45.30744" lon="5.84876">
        <ele>1690.4410400391</ele>
        <time>2017-01-28T09:06:13Z</time>
      </trkpt>
      <trkpt lat="45.30752" lon="5.84877">
        <ele>1690.4410400391</ele>
        <time>2017-01-28T09:06:46Z</time>
      </trkpt>
      <trkpt lat="45.30758" lon="5.8487">
        <ele>1690.4410400391</ele>
        <time>2017-01-28T09:06:57Z</time>
      </trkpt>
      <trkpt lat="45.30765" lon="5.84874">
        <ele>1694.4410400391</ele>
        <time>2017-01-28T09:07:05Z</time>
      </trkpt>
      <trkpt lat="45.30773" lon="5.84876">
        <ele>1696.4410400391</ele>
        <time>2017-01-28T09:07:18Z</time>
      </trkpt>
      <trkpt lat="45.3078" lon="5.84876">
        <ele>1700.4410400391</ele>
        <time>2017-01-28T09:07:32Z</time>
      </trkpt>
      <trkpt lat="45.30787" lon="5.8488">
        <ele>1704.4410400391</ele>
        <time>2017-01-28T09:08:07Z</time>
      </trkpt>
      <trkpt lat="45.30794" lon="5.84885">
        <ele>1709.4410400391</ele>
        <time>2017-01-28T09:08:26Z</time>
      </trkpt>
      <trkpt lat="45.30801" lon="5.84884">
        <ele>1712.4410400391</ele>
        <time>2017-01-28T09:08:38Z</time>
      </trkpt>
      <trkpt lat="45.30809" lon="5.84884">
        <ele>1716.4410400391</ele>
        <time>2017-01-28T09:08:47Z</time>
      </trkpt>
      <trkpt lat="45.30815" lon="5.84891">
        <ele>1716.4410400391</ele>
        <time>2017-01-28T09:09:01Z</time>
      </trkpt>
      <trkpt lat="45.30821" lon="5.84899">
        <ele>1722.4410400391</ele>
        <time>2017-01-28T09:09:51Z</time>
      </trkpt>
      <trkpt lat="45.3083" lon="5.84898">
        <ele>1732.4410400391</ele>
        <time>2017-01-28T09:10:28Z</time>
      </trkpt>
      <trkpt lat="45.30837" lon="5.84904">
        <ele>1734.4410400391</ele>
        <time>2017-01-28T09:10:56Z</time>
      </trkpt>
      <trkpt lat="45.30843" lon="5.8491">
        <ele>1742.4410400391</ele>
        <time>2017-01-28T09:12:02Z</time>
      </trkpt>
      <trkpt lat="45.3085" lon="5.84915">
        <ele>1743.4410400391</ele>
        <time>2017-01-28T09:12:11Z</time>
      </trkpt>
      <trkpt lat="45.30856" lon="5.84921">
        <ele>1745.4410400391</ele>
        <time>2017-01-28T09:12:28Z</time>
      </trkpt>
      <trkpt lat="45.30862" lon="5.84928">
        <ele>1749.4410400391</ele>
        <time>2017-01-28T09:12:46Z</time>
      </trkpt>
      <trkpt lat="45.30866" lon="5.84936">
        <ele>1750.4410400391</ele>
        <time>2017-01-28T09:13:09Z</time>
      </trkpt>
      <trkpt lat="45.30874" lon="5.84934">
        <ele>1756.4410400391</ele>
        <time>2017-01-28T09:13:23Z</time>
      </trkpt>
      <trkpt lat="45.30879" lon="5.84942">
        <ele>1761.4410400391</ele>
        <time>2017-01-28T09:13:53Z</time>
      </trkpt>
      <trkpt lat="45.30884" lon="5.8495">
        <ele>1768.4420166016</ele>
        <time>2017-01-28T09:14:23Z</time>
      </trkpt>
      <trkpt lat="45.30889" lon="5.84958">
        <ele>1774.4420166016</ele>
        <time>2017-01-28T09:14:49Z</time>
      </trkpt>
      <trkpt lat="45.30896" lon="5.84962">
        <ele>1783.4420166016</ele>
        <time>2017-01-28T09:15:26Z</time>
      </trkpt>
      <trkpt lat="45.30905" lon="5.84964">
        <ele>1787.4420166016</ele>
        <time>2017-01-28T09:17:00Z</time>
      </trkpt>
      <trkpt lat="45.30912" lon="5.84968">
        <ele>1785.4420166016</ele>
        <time>2017-01-28T09:17:08Z</time>
      </trkpt>
      <trkpt lat="45.30916" lon="5.84977">
        <ele>1793.4420166016</ele>
        <time>2017-01-28T09:17:53Z</time>
      </trkpt>
      <trkpt lat="45.30914" lon="5.84987">
        <ele>1800.4420166016</ele>
        <time>2017-01-28T09:18:17Z</time>
      </trkpt>
      <trkpt lat="45.30912" lon="5.84997">
        <ele>1805.4420166016</ele>
        <time>2017-01-28T09:18:59Z</time>
      </trkpt>
      <trkpt lat="45.30915" lon="5.85007">
        <ele>1808.4420166016</ele>
        <time>2017-01-28T09:19:20Z</time>
      </trkpt>
      <trkpt lat="45.3092" lon="5.85013">
        <ele>1811.4420166016</ele>
        <time>2017-01-28T09:20:27Z</time>
      </trkpt>
      <trkpt lat="45.30928" lon="5.85011">
        <ele>1818.4420166016</ele>
        <time>2017-01-28T09:20:39Z</time>
      </trkpt>
      <trkpt lat="45.30936" lon="5.85015">
        <ele>1813.4420166016</ele>
        <time>2017-01-28T09:21:35Z</time>
      </trkpt>
      <trkpt lat="45.30944" lon="5.85015">
        <ele>1821.4420166016</ele>
        <time>2017-01-28T09:21:51Z</time>
      </trkpt>
      <trkpt lat="45.30943" lon="5.85027">
        <ele>1830.4420166016</ele>
        <time>2017-01-28T09:22:44Z</time>
      </trkpt>
      <trkpt lat="45.3094" lon="5.85037">
        <ele>1836.4420166016</ele>
        <time>2017-01-28T09:23:05Z</time>
      </trkpt>
      <trkpt lat="45.30938" lon="5.85047">
        <ele>1838.4420166016</ele>
        <time>2017-01-28T09:23:27Z</time>
      </trkpt>
      <trkpt lat="45.30935" lon="5.85057">
        <ele>1842.4420166016</ele>
        <time>2017-01-28T09:23:51Z</time>
      </trkpt>
      <trkpt lat="45.3093" lon="5.85065">
        <ele>1842.4420166016</ele>
        <time>2017-01-28T09:24:35Z</time>
      </trkpt>
      <trkpt lat="45.30927" lon="5.85075">
        <ele>1841.4420166016</ele>
        <time>2017-01-28T09:24:49Z</time>
      </trkpt>
      <trkpt lat="45.30923" lon="5.85083">
        <ele>1845.4420166016</ele>
        <time>2017-01-28T09:25:30Z</time>
      </trkpt>
      <trkpt lat="45.30919" lon="5.85092">
        <ele>1847.4420166016</ele>
        <time>2017-01-28T09:25:40Z</time>
      </trkpt>
      <trkpt lat="45.30914" lon="5.85101">
        <ele>1844.4420166016</ele>
        <time>2017-01-28T09:26:22Z</time>
      </trkpt>
      <trkpt lat="45.30908" lon="5.85105">
        <ele>1835.4420166016</ele>
        <time>2017-01-28T09:26:58Z</time>
      </trkpt>
      <trkpt lat="45.30904" lon="5.85114">
        <ele>1852.4420166016</ele>
        <time>2017-01-28T09:27:27Z</time>
      </trkpt>
      <trkpt lat="45.30899" lon="5.85122">
        <ele>1852.4420166016</ele>
        <time>2017-01-28T09:27:37Z</time>
      </trkpt>
      <trkpt lat="45.30894" lon="5.85131">
        <ele>1853.4420166016</ele>
        <time>2017-01-28T09:27:55Z</time>
      </trkpt>
      <trkpt lat="45.30893" lon="5.85142">
        <ele>1851.4420166016</ele>
        <time>2017-01-28T09:28:06Z</time>
      </trkpt>
      <trkpt lat="45.30888" lon="5.85151">
        <ele>1853.4420166016</ele>
        <time>2017-01-28T09:28:16Z</time>
      </trkpt>
      <trkpt lat="45.30883" lon="5.85159">
        <ele>1853.4420166016</ele>
        <time>2017-01-28T09:28:27Z</time>
      </trkpt>
      <trkpt lat="45.30879" lon="5.85167">
        <ele>1853.4420166016</ele>
        <time>2017-01-28T09:28:40Z</time>
      </trkpt>
      <trkpt lat="45.30875" lon="5.85178">
        <ele>1856.4420166016</ele>
        <time>2017-01-28T09:28:50Z</time>
      </trkpt>
      <trkpt lat="45.30871" lon="5.85186">
        <ele>1855.4420166016</ele>
        <time>2017-01-28T09:29:03Z</time>
      </trkpt>
      <trkpt lat="45.30867" lon="5.85196">
        <ele>1859.4420166016</ele>
        <time>2017-01-28T09:29:13Z</time>
      </trkpt>
      <trkpt lat="45.30861" lon="5.85202">
        <ele>1867.4420166016</ele>
        <time>2017-01-28T09:29:24Z</time>
      </trkpt>
      <trkpt lat="45.3086" lon="5.85215">
        <ele>1874.4420166016</ele>
        <time>2017-01-28T09:31:15Z</time>
      </trkpt>
      <trkpt lat="45.30865" lon="5.85222">
        <ele>1879.4420166016</ele>
        <time>2017-01-28T09:31:20Z</time>
      </trkpt>
      <trkpt lat="45.3086" lon="5.85232">
        <ele>1872.4420166016</ele>
        <time>2017-01-28T09:31:45Z</time>
      </trkpt>
      <trkpt lat="45.30853" lon="5.8524">
        <ele>1884.4420166016</ele>
        <time>2017-01-28T09:32:06Z</time>
      </trkpt>
      <trkpt lat="45.30853" lon="5.8525">
        <ele>1887.4420166016</ele>
        <time>2017-01-28T09:32:17Z</time>
      </trkpt>
      <trkpt lat="45.3085" lon="5.85261">
        <ele>1896.4420166016</ele>
        <time>2017-01-28T09:32:35Z</time>
      </trkpt>
      <trkpt lat="45.30857" lon="5.85266">
        <ele>1902.4420166016</ele>
        <time>2017-01-28T09:33:04Z</time>
      </trkpt>
      <trkpt lat="45.30864" lon="5.85264">
        <ele>1907.4420166016</ele>
        <time>2017-01-28T09:33:19Z</time>
      </trkpt>
      <trkpt lat="45.30871" lon="5.85267">
        <ele>1911.4420166016</ele>
        <time>2017-01-28T09:33:36Z</time>
      </trkpt>
      <trkpt lat="45.30878" lon="5.85271">
        <ele>1910.4420166016</ele>
        <time>2017-01-28T09:33:43Z</time>
      </trkpt>
      <trkpt lat="45.30874" lon="5.8528">
        <ele>1916.4420166016</ele>
        <time>2017-01-28T09:33:54Z</time>
      </trkpt>
      <trkpt lat="45.30879" lon="5.85289">
        <ele>1918.4420166016</ele>
        <time>2017-01-28T09:35:08Z</time>
      </trkpt>
      <trkpt lat="45.30882" lon="5.85299">
        <ele>1915.4420166016</ele>
        <time>2017-01-28T09:35:15Z</time>
      </trkpt>
      <trkpt lat="45.30885" lon="5.85311">
        <ele>1910.4420166016</ele>
        <time>2017-01-28T09:35:22Z</time>
      </trkpt>
      <trkpt lat="45.30875" lon="5.85312">
        <ele>1918.4420166016</ele>
        <time>2017-01-28T09:35:48Z</time>
      </trkpt>
      <trkpt lat="45.30862" lon="5.85314">
        <ele>1931.4420166016</ele>
        <time>2017-01-28T09:35:56Z</time>
      </trkpt>
      <trkpt lat="45.30856" lon="5.85322">
        <ele>1935.4420166016</ele>
        <time>2017-01-28T09:36:12Z</time>
      </trkpt>
      <trkpt lat="45.30862" lon="5.8533">
        <ele>1955.4420166016</ele>
        <time>2017-01-28T09:37:26Z</time>
      </trkpt>
      <trkpt lat="45.30862" lon="5.85341">
        <ele>1967.4420166016</ele>
        <time>2017-01-28T09:38:42Z</time>
      </trkpt>
      <trkpt lat="45.30868" lon="5.8535">
        <ele>1973.4420166016</ele>
        <time>2017-01-28T09:39:04Z</time>
      </trkpt>
      <trkpt lat="45.30872" lon="5.85359">
        <ele>1971.4420166016</ele>
        <time>2017-01-28T09:39:40Z</time>
      </trkpt>
      <trkpt lat="45.30879" lon="5.85362">
        <ele>1977.4420166016</ele>
        <time>2017-01-28T09:39:58Z</time>
      </trkpt>
      <trkpt lat="45.30888" lon="5.85361">
        <ele>1978.4420166016</ele>
        <time>2017-01-28T09:40:09Z</time>
      </trkpt>
      <trkpt lat="45.30894" lon="5.85365">
        <ele>1989.4420166016</ele>
        <time>2017-01-28T09:41:02Z</time>
      </trkpt>
      <trkpt lat="45.30902" lon="5.85363">
        <ele>1988.4420166016</ele>
        <time>2017-01-28T09:41:14Z</time>
      </trkpt>
      <trkpt lat="45.30903" lon="5.85373">
        <ele>1990.4420166016</ele>
        <time>2017-01-28T09:42:12Z</time>
      </trkpt>
      <trkpt lat="45.30904" lon="5.85383">
        <ele>1997.4420166016</ele>
        <time>2017-01-28T09:42:38Z</time>
      </trkpt>
      <trkpt lat="45.30904" lon="5.85394">
        <ele>2008.4420166016</ele>
        <time>2017-01-28T09:43:05Z</time>
      </trkpt>
      <trkpt lat="45.30908" lon="5.85402">
        <ele>2014.4420166016</ele>
        <time>2017-01-28T09:43:42Z</time>
      </trkpt>
      <trkpt lat="45.30917" lon="5.85406">
        <ele>2018.4420166016</ele>
        <time>2017-01-28T09:44:14Z</time>
      </trkpt>
      <trkpt lat="45.30922" lon="5.85412">
        <ele>2019.4420166016</ele>
        <time>2017-01-28T09:44:37Z</time>
      </trkpt>
      <trkpt lat="45.30923" lon="5.85423">
        <ele>2021.4420166016</ele>
        <time>2017-01-28T09:44:47Z</time>
      </trkpt>
      <trkpt lat="45.3092" lon="5.85433">
        <ele>2022.4420166016</ele>
        <time>2017-01-28T09:44:57Z</time>
      </trkpt>
      <trkpt lat="45.30914" lon="5.8544">
        <ele>2023.4420166016</ele>
        <time>2017-01-28T09:45:05Z</time>
      </trkpt>
      <trkpt lat="45.30909" lon="5.85448">
        <ele>2026.4420166016</ele>
        <time>2017-01-28T09:45:19Z</time>
      </trkpt>
      <trkpt lat="45.30903" lon="5.85455">
        <ele>2030.4420166016</ele>
        <time>2017-01-28T09:45:28Z</time>
      </trkpt>
      <trkpt lat="45.30897" lon="5.85462">
        <ele>2031.4420166016</ele>
        <time>2017-01-28T09:45:38Z</time>
      </trkpt>
      <trkpt lat="45.30892" lon="5.85472">
        <ele>2033.4420166016</ele>
        <time>2017-01-28T09:45:51Z</time>
      </trkpt>
      <trkpt lat="45.30888" lon="5.8548">
        <ele>2033.4420166016</ele>
        <time>2017-01-28T09:46:06Z</time>
      </trkpt>
      <trkpt lat="45.30881" lon="5.85487">
        <ele>2039.4420166016</ele>
        <time>2017-01-28T09:46:38Z</time>
      </trkpt>
      <trkpt lat="45.30875" lon="5.85493">
        <ele>2042.4420166016</ele>
        <time>2017-01-28T09:46:48Z</time>
      </trkpt>
      <trkpt lat="45.3087" lon="5.85501">
        <ele>2044.4420166016</ele>
        <time>2017-01-28T09:47:00Z</time>
      </trkpt>
      <trkpt lat="45.30863" lon="5.85506">
        <ele>2047.4420166016</ele>
        <time>2017-01-28T09:47:12Z</time>
      </trkpt>
      <trkpt lat="45.3086" lon="5.85515">
        <ele>2051.4418945312</ele>
        <time>2017-01-28T09:47:23Z</time>
      </trkpt>
      <trkpt lat="45.30854" lon="5.85521">
        <ele>2054.4418945312</ele>
        <time>2017-01-28T09:47:41Z</time>
      </trkpt>
      <trkpt lat="45.3085" lon="5.85531">
        <ele>2054.4418945312</ele>
        <time>2017-01-28T09:47:55Z</time>
      </trkpt>
      <trkpt lat="45.30844" lon="5.85536">
        <ele>2055.4418945312</ele>
        <time>2017-01-28T09:48:07Z</time>
      </trkpt>
      <trkpt lat="45.30838" lon="5.85543">
        <ele>2057.4418945312</ele>
        <time>2017-01-28T09:48:19Z</time>
      </trkpt>
      <trkpt lat="45.30831" lon="5.85545">
        <ele>2061.4418945312</ele>
        <time>2017-01-28T09:48:36Z</time>
      </trkpt>
      <trkpt lat="45.30824" lon="5.8555">
        <ele>2062.4418945312</ele>
        <time>2017-01-28T09:50:42Z</time>
      </trkpt>
      <trkpt lat="45.30831" lon="5.85545">
        <ele>2064.4418945312</ele>
        <time>2017-01-28T09:53:53Z</time>
      </trkpt>
      <trkpt lat="45.30839" lon="5.85543">
        <ele>2062.4418945312</ele>
        <time>2017-01-28T09:54:01Z</time>
      </trkpt>
      <trkpt lat="45.30848" lon="5.85544">
        <ele>2061.4418945312</ele>
        <time>2017-01-28T09:54:52Z</time>
      </trkpt>
      <trkpt lat="45.30855" lon="5.85539">
        <ele>2053.4418945312</ele>
        <time>2017-01-28T09:55:17Z</time>
      </trkpt>
      <trkpt lat="45.30872" lon="5.85532">
        <ele>2047.4420166016</ele>
        <time>2017-01-28T09:55:23Z</time>
      </trkpt>
      <trkpt lat="45.30888" lon="5.85521">
        <ele>2043.4420166016</ele>
        <time>2017-01-28T09:55:28Z</time>
      </trkpt>
      <trkpt lat="45.30899" lon="5.85499">
        <ele>2040.4420166016</ele>
        <time>2017-01-28T09:55:33Z</time>
      </trkpt>
      <trkpt lat="45.30907" lon="5.85467">
        <ele>2036.4420166016</ele>
        <time>2017-01-28T09:55:39Z</time>
      </trkpt>
      <trkpt lat="45.30905" lon="5.85454">
        <ele>2035.4420166016</ele>
        <time>2017-01-28T09:56:10Z</time>
      </trkpt>
      <trkpt lat="45.30908" lon="5.85443">
        <ele>2035.4420166016</ele>
        <time>2017-01-28T09:56:15Z</time>
      </trkpt>
      <trkpt lat="45.30913" lon="5.85435">
        <ele>2037.4420166016</ele>
        <time>2017-01-28T09:56:21Z</time>
      </trkpt>
      <trkpt lat="45.30918" lon="5.85426">
        <ele>2036.4420166016</ele>
        <time>2017-01-28T09:56:26Z</time>
      </trkpt>
      <trkpt lat="45.30923" lon="5.85419">
        <ele>2033.4420166016</ele>
        <time>2017-01-28T09:56:32Z</time>
      </trkpt>
      <trkpt lat="45.30922" lon="5.85408">
        <ele>2028.4420166016</ele>
        <time>2017-01-28T09:56:46Z</time>
      </trkpt>
      <trkpt lat="45.30915" lon="5.85407">
        <ele>2025.4420166016</ele>
        <time>2017-01-28T09:56:56Z</time>
      </trkpt>
      <trkpt lat="45.30912" lon="5.85398">
        <ele>2019.4420166016</ele>
        <time>2017-01-28T09:57:57Z</time>
      </trkpt>
      <trkpt lat="45.30917" lon="5.85386">
        <ele>2016.4420166016</ele>
        <time>2017-01-28T09:58:40Z</time>
      </trkpt>
      <trkpt lat="45.30914" lon="5.85377">
        <ele>2014.4420166016</ele>
        <time>2017-01-28T09:58:50Z</time>
      </trkpt>
      <trkpt lat="45.30908" lon="5.85369">
        <ele>2011.4420166016</ele>
        <time>2017-01-28T09:59:00Z</time>
      </trkpt>
      <trkpt lat="45.30901" lon="5.85364">
        <ele>2004.4420166016</ele>
        <time>2017-01-28T09:59:09Z</time>
      </trkpt>
      <trkpt lat="45.30894" lon="5.85359">
        <ele>2000.4420166016</ele>
        <time>2017-01-28T09:59:21Z</time>
      </trkpt>
      <trkpt lat="45.30886" lon="5.85361">
        <ele>1993.4420166016</ele>
        <time>2017-01-28T09:59:36Z</time>
      </trkpt>
      <trkpt lat="45.30877" lon="5.85361">
        <ele>1992.4420166016</ele>
        <time>2017-01-28T09:59:46Z</time>
      </trkpt>
      <trkpt lat="45.3087" lon="5.85364">
        <ele>1989.4420166016</ele>
        <time>2017-01-28T09:59:52Z</time>
      </trkpt>
      <trkpt lat="45.30863" lon="5.85362">
        <ele>1979.4420166016</ele>
        <time>2017-01-28T10:00:04Z</time>
      </trkpt>
      <trkpt lat="45.30858" lon="5.85354">
        <ele>1972.4420166016</ele>
        <time>2017-01-28T10:00:10Z</time>
      </trkpt>
      <trkpt lat="45.30854" lon="5.85344">
        <ele>1971.4420166016</ele>
        <time>2017-01-28T10:00:18Z</time>
      </trkpt>
      <trkpt lat="45.30861" lon="5.8534">
        <ele>1964.4420166016</ele>
        <time>2017-01-28T10:00:37Z</time>
      </trkpt>
      <trkpt lat="45.30866" lon="5.85332">
        <ele>1959.4420166016</ele>
        <time>2017-01-28T10:02:20Z</time>
      </trkpt>
      <trkpt lat="45.30858" lon="5.85329">
        <ele>1954.4420166016</ele>
        <time>2017-01-28T10:02:41Z</time>
      </trkpt>
      <trkpt lat="45.30851" lon="5.8533">
        <ele>1948.4420166016</ele>
        <time>2017-01-28T10:04:06Z</time>
      </trkpt>
      <trkpt lat="45.30858" lon="5.85324">
        <ele>1809.4420166016</ele>
        <time>2017-01-28T10:04:34Z</time>
      </trkpt>
      <trkpt lat="45.30863" lon="5.85317">
        <ele>1926.4420166016</ele>
        <time>2017-01-28T10:04:50Z</time>
      </trkpt>
      <trkpt lat="45.30868" lon="5.85308">
        <ele>1931.4420166016</ele>
        <time>2017-01-28T10:04:58Z</time>
      </trkpt>
      <trkpt lat="45.30872" lon="5.85299">
        <ele>1926.4420166016</ele>
        <time>2017-01-28T10:05:05Z</time>
      </trkpt>
      <trkpt lat="45.30876" lon="5.85289">
        <ele>1930.4420166016</ele>
        <time>2017-01-28T10:05:25Z</time>
      </trkpt>
      <trkpt lat="45.30878" lon="5.85279">
        <ele>1878.4420166016</ele>
        <time>2017-01-28T10:07:32Z</time>
      </trkpt>
      <trkpt lat="45.30879" lon="5.85269">
        <ele>1913.4420166016</ele>
        <time>2017-01-28T10:07:51Z</time>
      </trkpt>
      <trkpt lat="45.30878" lon="5.85259">
        <ele>1913.4420166016</ele>
        <time>2017-01-28T10:08:12Z</time>
      </trkpt>
      <trkpt lat="45.30872" lon="5.85251">
        <ele>1911.4420166016</ele>
        <time>2017-01-28T10:08:33Z</time>
      </trkpt>
      <trkpt lat="45.30866" lon="5.85244">
        <ele>1908.4420166016</ele>
        <time>2017-01-28T10:08:50Z</time>
      </trkpt>
      <trkpt lat="45.30855" lon="5.8523">
        <ele>1899.4420166016</ele>
        <time>2017-01-28T10:09:35Z</time>
      </trkpt>
      <trkpt lat="45.30848" lon="5.85227">
        <ele>1896.4420166016</ele>
        <time>2017-01-28T10:09:43Z</time>
      </trkpt>
      <trkpt lat="45.3085" lon="5.85214">
        <ele>1892.4420166016</ele>
        <time>2017-01-28T10:09:48Z</time>
      </trkpt>
      <trkpt lat="45.30856" lon="5.85205">
        <ele>1883.4420166016</ele>
        <time>2017-01-28T10:10:11Z</time>
      </trkpt>
      <trkpt lat="45.30862" lon="5.85191">
        <ele>1882.4420166016</ele>
        <time>2017-01-28T10:10:13Z</time>
      </trkpt>
      <trkpt lat="45.3088" lon="5.85159">
        <ele>1881.4420166016</ele>
        <time>2017-01-28T10:10:20Z</time>
      </trkpt>
      <trkpt lat="45.30896" lon="5.85131">
        <ele>1878.4420166016</ele>
        <time>2017-01-28T10:10:26Z</time>
      </trkpt>
      <trkpt lat="45.30905" lon="5.85111">
        <ele>1873.4420166016</ele>
        <time>2017-01-28T10:10:31Z</time>
      </trkpt>
      <trkpt lat="45.30918" lon="5.85091">
        <ele>1866.4420166016</ele>
        <time>2017-01-28T10:10:37Z</time>
      </trkpt>
      <trkpt lat="45.3093" lon="5.8507">
        <ele>1862.4420166016</ele>
        <time>2017-01-28T10:10:43Z</time>
      </trkpt>
      <trkpt lat="45.3094" lon="5.85061">
        <ele>1857.4420166016</ele>
        <time>2017-01-28T10:10:47Z</time>
      </trkpt>
      <trkpt lat="45.30962" lon="5.85039">
        <ele>1851.4420166016</ele>
        <time>2017-01-28T10:10:53Z</time>
      </trkpt>
      <trkpt lat="45.30974" lon="5.8502">
        <ele>1789.4420166016</ele>
        <time>2017-01-28T10:10:58Z</time>
      </trkpt>
      <trkpt lat="45.30979" lon="5.85009">
        <ele>1838.4420166016</ele>
        <time>2017-01-28T10:11:07Z</time>
      </trkpt>
      <trkpt lat="45.30987" lon="5.85004">
        <ele>1839.4420166016</ele>
        <time>2017-01-28T10:11:12Z</time>
      </trkpt>
      <trkpt lat="45.30987" lon="5.84993">
        <ele>1831.4420166016</ele>
        <time>2017-01-28T10:11:20Z</time>
      </trkpt>
      <trkpt lat="45.30984" lon="5.84983">
        <ele>1833.4420166016</ele>
        <time>2017-01-28T10:11:37Z</time>
      </trkpt>
      <trkpt lat="45.3099" lon="5.84977">
        <ele>1826.4420166016</ele>
        <time>2017-01-28T10:11:54Z</time>
      </trkpt>
      <trkpt lat="45.30998" lon="5.8497">
        <ele>1821.4420166016</ele>
        <time>2017-01-28T10:12:14Z</time>
      </trkpt>
      <trkpt lat="45.31004" lon="5.84964">
        <ele>1820.4420166016</ele>
        <time>2017-01-28T10:12:25Z</time>
      </trkpt>
      <trkpt lat="45.3101" lon="5.84959">
        <ele>1817.4420166016</ele>
        <time>2017-01-28T10:12:36Z</time>
      </trkpt>
      <trkpt lat="45.31017" lon="5.84957">
        <ele>1816.4420166016</ele>
        <time>2017-01-28T10:13:00Z</time>
      </trkpt>
      <trkpt lat="45.31025" lon="5.84957">
        <ele>1814.4420166016</ele>
        <time>2017-01-28T10:13:10Z</time>
      </trkpt>
      <trkpt lat="45.31033" lon="5.84956">
        <ele>1812.4420166016</ele>
        <time>2017-01-28T10:13:21Z</time>
      </trkpt>
      <trkpt lat="45.31039" lon="5.8495">
        <ele>1813.4420166016</ele>
        <time>2017-01-28T10:13:52Z</time>
      </trkpt>
      <trkpt lat="45.31066" lon="5.84948">
        <ele>1805.4420166016</ele>
        <time>2017-01-28T10:13:58Z</time>
      </trkpt>
      <trkpt lat="45.31071" lon="5.84939">
        <ele>1806.4420166016</ele>
        <time>2017-01-28T10:14:05Z</time>
      </trkpt>
      <trkpt lat="45.31067" lon="5.84929">
        <ele>1745.4420166016</ele>
        <time>2017-01-28T10:14:17Z</time>
      </trkpt>
      <trkpt lat="45.31061" lon="5.84921">
        <ele>1769.4420166016</ele>
        <time>2017-01-28T10:14:24Z</time>
      </trkpt>
      <trkpt lat="45.31049" lon="5.84905">
        <ele>1769.4420166016</ele>
        <time>2017-01-28T10:14:29Z</time>
      </trkpt>
      <trkpt lat="45.31046" lon="5.84892">
        <ele>1771.4420166016</ele>
        <time>2017-01-28T10:14:31Z</time>
      </trkpt>
      <trkpt lat="45.31045" lon="5.84855">
        <ele>1773.4420166016</ele>
        <time>2017-01-28T10:14:38Z</time>
      </trkpt>
      <trkpt lat="45.31051" lon="5.84846">
        <ele>1772.4420166016</ele>
        <time>2017-01-28T10:14:47Z</time>
      </trkpt>
      <trkpt lat="45.31058" lon="5.84847">
        <ele>1772.4420166016</ele>
        <time>2017-01-28T10:14:53Z</time>
      </trkpt>
      <trkpt lat="45.31065" lon="5.84842">
        <ele>1772.4420166016</ele>
        <time>2017-01-28T10:15:00Z</time>
      </trkpt>
      <trkpt lat="45.31074" lon="5.84843">
        <ele>1764.4420166016</ele>
        <time>2017-01-28T10:15:09Z</time>
      </trkpt>
      <trkpt lat="45.31081" lon="5.8484">
        <ele>1765.4420166016</ele>
        <time>2017-01-28T10:15:23Z</time>
      </trkpt>
      <trkpt lat="45.31088" lon="5.84839">
        <ele>1766.4420166016</ele>
        <time>2017-01-28T10:15:38Z</time>
      </trkpt>
      <trkpt lat="45.31096" lon="5.84835">
        <ele>1765.4420166016</ele>
        <time>2017-01-28T10:15:41Z</time>
      </trkpt>
      <trkpt lat="45.31102" lon="5.8481">
        <ele>1760.4420166016</ele>
        <time>2017-01-28T10:15:47Z</time>
      </trkpt>
      <trkpt lat="45.31098" lon="5.848">
        <ele>1752.4420166016</ele>
        <time>2017-01-28T10:16:06Z</time>
      </trkpt>
      <trkpt lat="45.31091" lon="5.84789">
        <ele>1745.4420166016</ele>
        <time>2017-01-28T10:16:18Z</time>
      </trkpt>
      <trkpt lat="45.31102" lon="5.84772">
        <ele>1742.4420166016</ele>
        <time>2017-01-28T10:16:23Z</time>
      </trkpt>
      <trkpt lat="45.31091" lon="5.84758">
        <ele>1734.4420166016</ele>
        <time>2017-01-28T10:16:30Z</time>
      </trkpt>
      <trkpt lat="45.31091" lon="5.84746">
        <ele>1731.4420166016</ele>
        <time>2017-01-28T10:16:36Z</time>
      </trkpt>
      <trkpt lat="45.31086" lon="5.84719">
        <ele>1720.4420166016</ele>
        <time>2017-01-28T10:16:46Z</time>
      </trkpt>
      <trkpt lat="45.31082" lon="5.84695">
        <ele>1713.4420166016</ele>
        <time>2017-01-28T10:16:54Z</time>
      </trkpt>
      <trkpt lat="45.31085" lon="5.84685">
        <ele>1707.4420166016</ele>
        <time>2017-01-28T10:17:14Z</time>
      </trkpt>
      <trkpt lat="45.31084" lon="5.84663">
        <ele>1695.4420166016</ele>
        <time>2017-01-28T10:17:26Z</time>
      </trkpt>
      <trkpt lat="45.3108" lon="5.84654">
        <ele>1745.4420166016</ele>
        <time>2017-01-28T10:17:43Z</time>
      </trkpt>
      <trkpt lat="45.31074" lon="5.84647">
        <ele>1710.4420166016</ele>
        <time>2017-01-28T10:17:50Z</time>
      </trkpt>
      <trkpt lat="45.31079" lon="5.84636">
        <ele>1690.4410400391</ele>
        <time>2017-01-28T10:18:01Z</time>
      </trkpt>
      <trkpt lat="45.31094" lon="5.84626">
        <ele>1679.4420166016</ele>
        <time>2017-01-28T10:18:07Z</time>
      </trkpt>
      <trkpt lat="45.31095" lon="5.84604">
        <ele>1660.4410400391</ele>
        <time>2017-01-28T10:18:26Z</time>
      </trkpt>
      <trkpt lat="45.31085" lon="5.84599">
        <ele>1659.4410400391</ele>
        <time>2017-01-28T10:18:30Z</time>
      </trkpt>
      <trkpt lat="45.31069" lon="5.84592">
        <ele>1657.4410400391</ele>
        <time>2017-01-28T10:18:37Z</time>
      </trkpt>
      <trkpt lat="45.31054" lon="5.84584">
        <ele>1651.4410400391</ele>
        <time>2017-01-28T10:18:46Z</time>
      </trkpt>
      <trkpt lat="45.31038" lon="5.84584">
        <ele>1649.4410400391</ele>
        <time>2017-01-28T10:18:55Z</time>
      </trkpt>
      <trkpt lat="45.31034" lon="5.84568">
        <ele>1641.4410400391</ele>
        <time>2017-01-28T10:19:02Z</time>
      </trkpt>
      <trkpt lat="45.31034" lon="5.84545">
        <ele>1636.4410400391</ele>
        <time>2017-01-28T10:19:07Z</time>
      </trkpt>
      <trkpt lat="45.31021" lon="5.8452">
        <ele>1632.4410400391</ele>
        <time>2017-01-28T10:19:14Z</time>
      </trkpt>
      <trkpt lat="45.31017" lon="5.8451">
        <ele>1627.4410400391</ele>
        <time>2017-01-28T10:19:16Z</time>
      </trkpt>
      <trkpt lat="45.31015" lon="5.84483">
        <ele>1621.4410400391</ele>
        <time>2017-01-28T10:19:22Z</time>
      </trkpt>
      <trkpt lat="45.31008" lon="5.84479">
        <ele>1620.4410400391</ele>
        <time>2017-01-28T10:19:24Z</time>
      </trkpt>
      <trkpt lat="45.3101" lon="5.84455">
        <ele>1616.4410400391</ele>
        <time>2017-01-28T10:19:30Z</time>
      </trkpt>
      <trkpt lat="45.30997" lon="5.84442">
        <ele>1612.4410400391</ele>
        <time>2017-01-28T10:19:35Z</time>
      </trkpt>
      <trkpt lat="45.30997" lon="5.84432">
        <ele>1609.4410400391</ele>
        <time>2017-01-28T10:19:37Z</time>
      </trkpt>
      <trkpt lat="45.30987" lon="5.84425">
        <ele>1602.4410400391</ele>
        <time>2017-01-28T10:19:42Z</time>
      </trkpt>
      <trkpt lat="45.30979" lon="5.8443">
        <ele>1600.4410400391</ele>
        <time>2017-01-28T10:19:44Z</time>
      </trkpt>
      <trkpt lat="45.30977" lon="5.84399">
        <ele>1591.4410400391</ele>
        <time>2017-01-28T10:19:49Z</time>
      </trkpt>
      <trkpt lat="45.3098" lon="5.84373">
        <ele>1584.4410400391</ele>
        <time>2017-01-28T10:19:54Z</time>
      </trkpt>
      <trkpt lat="45.30975" lon="5.84365">
        <ele>1577.4410400391</ele>
        <time>2017-01-28T10:20:01Z</time>
      </trkpt>
      <trkpt lat="45.30971" lon="5.84353">
        <ele>1573.4410400391</ele>
        <time>2017-01-28T10:20:06Z</time>
      </trkpt>
      <trkpt lat="45.30983" lon="5.84316">
        <ele>1563.4410400391</ele>
        <time>2017-01-28T10:20:12Z</time>
      </trkpt>
      <trkpt lat="45.30995" lon="5.84268">
        <ele>1556.4410400391</ele>
        <time>2017-01-28T10:20:17Z</time>
      </trkpt>
      <trkpt lat="45.31018" lon="5.84224">
        <ele>1548.4410400391</ele>
        <time>2017-01-28T10:20:24Z</time>
      </trkpt>
      <trkpt lat="45.31025" lon="5.84222">
        <ele>1545.4410400391</ele>
        <time>2017-01-28T10:20:32Z</time>
      </trkpt>
      <trkpt lat="45.31029" lon="5.84212">
        <ele>1538.4410400391</ele>
        <time>2017-01-28T10:22:03Z</time>
      </trkpt>
      <trkpt lat="45.31035" lon="5.84205">
        <ele>1537.4410400391</ele>
        <time>2017-01-28T10:22:09Z</time>
      </trkpt>
      <trkpt lat="45.3104" lon="5.84196">
        <ele>1538.4410400391</ele>
        <time>2017-01-28T10:22:16Z</time>
      </trkpt>
      <trkpt lat="45.31045" lon="5.84188">
        <ele>1536.4410400391</ele>
        <time>2017-01-28T10:22:22Z</time>
      </trkpt>
      <trkpt lat="45.31049" lon="5.84179">
        <ele>1536.4410400391</ele>
        <time>2017-01-28T10:22:27Z</time>
      </trkpt>
      <trkpt lat="45.31055" lon="5.84172">
        <ele>1539.4410400391</ele>
        <time>2017-01-28T10:22:35Z</time>
      </trkpt>
      <trkpt lat="45.31057" lon="5.84162">
        <ele>1543.4410400391</ele>
        <time>2017-01-28T10:23:03Z</time>
      </trkpt>
      <trkpt lat="45.31057" lon="5.84151">
        <ele>1545.4410400391</ele>
        <time>2017-01-28T10:23:10Z</time>
      </trkpt>
      <trkpt lat="45.31061" lon="5.84141">
        <ele>1542.4410400391</ele>
        <time>2017-01-28T10:23:20Z</time>
      </trkpt>
      <trkpt lat="45.31062" lon="5.8413">
        <ele>1544.4410400391</ele>
        <time>2017-01-28T10:23:28Z</time>
      </trkpt>
      <trkpt lat="45.31061" lon="5.84118">
        <ele>1544.4410400391</ele>
        <time>2017-01-28T10:23:34Z</time>
      </trkpt>
      <trkpt lat="45.3106" lon="5.84107">
        <ele>1539.4410400391</ele>
        <time>2017-01-28T10:23:43Z</time>
      </trkpt>
      <trkpt lat="45.3106" lon="5.84096">
        <ele>1538.4410400391</ele>
        <time>2017-01-28T10:23:54Z</time>
      </trkpt>
      <trkpt lat="45.31058" lon="5.84084">
        <ele>1539.4410400391</ele>
        <time>2017-01-28T10:24:00Z</time>
      </trkpt>
      <trkpt lat="45.31058" lon="5.84073">
        <ele>1544.4410400391</ele>
        <time>2017-01-28T10:24:06Z</time>
      </trkpt>
      <trkpt lat="45.31056" lon="5.84063">
        <ele>1544.4410400391</ele>
        <time>2017-01-28T10:24:12Z</time>
      </trkpt>
      <trkpt lat="45.31051" lon="5.84054">
        <ele>1446.4410400391</ele>
        <time>2017-01-28T10:24:19Z</time>
      </trkpt>
      <trkpt lat="45.31051" lon="5.84044">
        <ele>1538.4410400391</ele>
        <time>2017-01-28T10:24:28Z</time>
      </trkpt>
      <trkpt lat="45.31049" lon="5.84034">
        <ele>1548.4410400391</ele>
        <time>2017-01-28T10:24:34Z</time>
      </trkpt>
      <trkpt lat="45.31045" lon="5.84023">
        <ele>1552.4410400391</ele>
        <time>2017-01-28T10:24:44Z</time>
      </trkpt>
      <trkpt lat="45.31041" lon="5.84012">
        <ele>1551.4410400391</ele>
        <time>2017-01-28T10:24:53Z</time>
      </trkpt>
      <trkpt lat="45.31035" lon="5.84006">
        <ele>1555.4410400391</ele>
        <time>2017-01-28T10:24:58Z</time>
      </trkpt>
      <trkpt lat="45.31032" lon="5.83996">
        <ele>1557.4410400391</ele>
        <time>2017-01-28T10:25:05Z</time>
      </trkpt>
      <trkpt lat="45.31032" lon="5.83984">
        <ele>1563.4410400391</ele>
        <time>2017-01-28T10:26:41Z</time>
      </trkpt>
      <trkpt lat="45.31033" lon="5.83973">
        <ele>1558.4410400391</ele>
        <time>2017-01-28T10:26:50Z</time>
      </trkpt>
      <trkpt lat="45.31031" lon="5.83963">
        <ele>1563.4399414062</ele>
        <time>2017-01-28T10:27:01Z</time>
      </trkpt>
      <trkpt lat="45.31026" lon="5.83953">
        <ele>1571.4399414062</ele>
        <time>2017-01-28T10:27:09Z</time>
      </trkpt>
      <trkpt lat="45.3102" lon="5.83946">
        <ele>1574.4399414062</ele>
        <time>2017-01-28T10:27:17Z</time>
      </trkpt>
      <trkpt lat="45.31018" lon="5.83935">
        <ele>1575.4399414062</ele>
        <time>2017-01-28T10:27:30Z</time>
      </trkpt>
      <trkpt lat="45.31017" lon="5.83925">
        <ele>1575.4399414062</ele>
        <time>2017-01-28T10:27:37Z</time>
      </trkpt>
      <trkpt lat="45.31012" lon="5.83917">
        <ele>1580.4399414062</ele>
        <time>2017-01-28T10:27:50Z</time>
      </trkpt>
      <trkpt lat="45.31009" lon="5.83907">
        <ele>1581.4399414062</ele>
        <time>2017-01-28T10:28:04Z</time>
      </trkpt>
      <trkpt lat="45.31005" lon="5.83897">
        <ele>1586.4399414062</ele>
        <time>2017-01-28T10:28:20Z</time>
      </trkpt>
      <trkpt lat="45.31004" lon="5.83887">
        <ele>1588.4399414062</ele>
        <time>2017-01-28T10:28:57Z</time>
      </trkpt>
      <trkpt lat="45.31002" lon="5.83877">
        <ele>1590.4399414062</ele>
        <time>2017-01-28T10:29:04Z</time>
      </trkpt>
      <trkpt lat="45.31" lon="5.83866">
        <ele>1589.4399414062</ele>
        <time>2017-01-28T10:29:10Z</time>
      </trkpt>
      <trkpt lat="45.30996" lon="5.83858">
        <ele>1594.4399414062</ele>
        <time>2017-01-28T10:29:18Z</time>
      </trkpt>
      <trkpt lat="45.30992" lon="5.83849">
        <ele>1595.4399414062</ele>
        <time>2017-01-28T10:29:25Z</time>
      </trkpt>
      <trkpt lat="45.30989" lon="5.83839">
        <ele>1595.4399414062</ele>
        <time>2017-01-28T10:29:38Z</time>
      </trkpt>
      <trkpt lat="45.30985" lon="5.83831">
        <ele>1598.4399414062</ele>
        <time>2017-01-28T10:29:44Z</time>
      </trkpt>
      <trkpt lat="45.30981" lon="5.83821">
        <ele>1599.4399414062</ele>
        <time>2017-01-28T10:29:52Z</time>
      </trkpt>
      <trkpt lat="45.30974" lon="5.83815">
        <ele>1601.4399414062</ele>
        <time>2017-01-28T10:30:00Z</time>
      </trkpt>
      <trkpt lat="45.30983" lon="5.83816">
        <ele>1612.4399414062</ele>
        <time>2017-01-28T10:30:14Z</time>
      </trkpt>
      <trkpt lat="45.3099" lon="5.83821">
        <ele>1616.4399414062</ele>
        <time>2017-01-28T10:30:24Z</time>
      </trkpt>
      <trkpt lat="45.30986" lon="5.83812">
        <ele>1614.4399414062</ele>
        <time>2017-01-28T10:30:35Z</time>
      </trkpt>
      <trkpt lat="45.30983" lon="5.83802">
        <ele>1618.4399414062</ele>
        <time>2017-01-28T10:30:46Z</time>
      </trkpt>
      <trkpt lat="45.30991" lon="5.83801">
        <ele>1627.4399414062</ele>
        <time>2017-01-28T10:31:10Z</time>
      </trkpt>
      <trkpt lat="45.30989" lon="5.8379">
        <ele>1626.4399414062</ele>
        <time>2017-01-28T10:31:23Z</time>
      </trkpt>
      <trkpt lat="45.30985" lon="5.83781">
        <ele>1627.4399414062</ele>
        <time>2017-01-28T10:31:32Z</time>
      </trkpt>
      <trkpt lat="45.30982" lon="5.83771">
        <ele>1629.4399414062</ele>
        <time>2017-01-28T10:31:44Z</time>
      </trkpt>
      <trkpt lat="45.30978" lon="5.83761">
        <ele>1627.4399414062</ele>
        <time>2017-01-28T10:31:56Z</time>
      </trkpt>
      <trkpt lat="45.30987" lon="5.83765">
        <ele>1636.4399414062</ele>
        <time>2017-01-28T10:32:14Z</time>
      </trkpt>
      <trkpt lat="45.30994" lon="5.83766">
        <ele>1641.4399414062</ele>
        <time>2017-01-28T10:32:21Z</time>
      </trkpt>
      <trkpt lat="45.30989" lon="5.83757">
        <ele>1637.4399414062</ele>
        <time>2017-01-28T10:32:29Z</time>
      </trkpt>
      <trkpt lat="45.30985" lon="5.83747">
        <ele>1639.4399414062</ele>
        <time>2017-01-28T10:32:38Z</time>
      </trkpt>
      <trkpt lat="45.30981" lon="5.83737">
        <ele>1640.4399414062</ele>
        <time>2017-01-28T10:32:50Z</time>
      </trkpt>
      <trkpt lat="45.30976" lon="5.83729">
        <ele>1645.4399414062</ele>
        <time>2017-01-28T10:33:57Z</time>
      </trkpt>
      <trkpt lat="45.30973" lon="5.8372">
        <ele>1645.4399414062</ele>
        <time>2017-01-28T10:34:04Z</time>
      </trkpt>
      <trkpt lat="45.30967" lon="5.83712">
        <ele>1648.4399414062</ele>
        <time>2017-01-28T10:34:11Z</time>
      </trkpt>
      <trkpt lat="45.30962" lon="5.83704">
        <ele>1647.4399414062</ele>
        <time>2017-01-28T10:34:16Z</time>
      </trkpt>
      <trkpt lat="45.30959" lon="5.83695">
        <ele>1646.4399414062</ele>
        <time>2017-01-28T10:34:29Z</time>
      </trkpt>
      <trkpt lat="45.30956" lon="5.83684">
        <ele>1642.4399414062</ele>
        <time>2017-01-28T10:34:35Z</time>
      </trkpt>
      <trkpt lat="45.30949" lon="5.83677">
        <ele>1646.4399414062</ele>
        <time>2017-01-28T10:34:44Z</time>
      </trkpt>
      <trkpt lat="45.30942" lon="5.8367">
        <ele>1647.4399414062</ele>
        <time>2017-01-28T10:34:51Z</time>
      </trkpt>
      <trkpt lat="45.30938" lon="5.83661">
        <ele>1650.4399414062</ele>
        <time>2017-01-28T10:35:00Z</time>
      </trkpt>
      <trkpt lat="45.30934" lon="5.83653">
        <ele>1652.4399414062</ele>
        <time>2017-01-28T10:35:10Z</time>
      </trkpt>
      <trkpt lat="45.30941" lon="5.83657">
        <ele>1659.4399414062</ele>
        <time>2017-01-28T10:35:32Z</time>
      </trkpt>
      <trkpt lat="45.30949" lon="5.83659">
        <ele>1661.4399414062</ele>
        <time>2017-01-28T10:35:44Z</time>
      </trkpt>
      <trkpt lat="45.30957" lon="5.83663">
        <ele>1664.4399414062</ele>
        <time>2017-01-28T10:35:52Z</time>
      </trkpt>
      <trkpt lat="45.30965" lon="5.83665">
        <ele>1667.4399414062</ele>
        <time>2017-01-28T10:36:01Z</time>
      </trkpt>
      <trkpt lat="45.30972" lon="5.83668">
        <ele>1670.4399414062</ele>
        <time>2017-01-28T10:36:08Z</time>
      </trkpt>
      <trkpt lat="45.30974" lon="5.83657">
        <ele>1675.4399414062</ele>
        <time>2017-01-28T10:36:20Z</time>
      </trkpt>
      <trkpt lat="45.30969" lon="5.83649">
        <ele>1675.4399414062</ele>
        <time>2017-01-28T10:36:29Z</time>
      </trkpt>
      <trkpt lat="45.30966" lon="5.8364">
        <ele>1676.4399414062</ele>
        <time>2017-01-28T10:36:40Z</time>
      </trkpt>
      <trkpt lat="45.3096" lon="5.83633">
        <ele>1678.4399414062</ele>
        <time>2017-01-28T10:36:47Z</time>
      </trkpt>
      <trkpt lat="45.30956" lon="5.83622">
        <ele>1677.4399414062</ele>
        <time>2017-01-28T10:37:07Z</time>
      </trkpt>
      <trkpt lat="45.30963" lon="5.83616">
        <ele>1689.4399414062</ele>
        <time>2017-01-28T10:37:31Z</time>
      </trkpt>
      <trkpt lat="45.3097" lon="5.83612">
        <ele>1693.4399414062</ele>
        <time>2017-01-28T10:37:43Z</time>
      </trkpt>
      <trkpt lat="45.30978" lon="5.83612">
        <ele>1697.4399414062</ele>
        <time>2017-01-28T10:37:58Z</time>
      </trkpt>
      <trkpt lat="45.30985" lon="5.83615">
        <ele>1702.4399414062</ele>
        <time>2017-01-28T10:38:09Z</time>
      </trkpt>
      <trkpt lat="45.30994" lon="5.83613">
        <ele>1703.4399414062</ele>
        <time>2017-01-28T10:38:29Z</time>
      </trkpt>
      <trkpt lat="45.31002" lon="5.83612">
        <ele>1706.4399414062</ele>
        <time>2017-01-28T10:38:38Z</time>
      </trkpt>
      <trkpt lat="45.31008" lon="5.83605">
        <ele>1715.4399414062</ele>
        <time>2017-01-28T10:39:31Z</time>
      </trkpt>
      <trkpt lat="45.31016" lon="5.83602">
        <ele>1714.4399414062</ele>
        <time>2017-01-28T10:39:42Z</time>
      </trkpt>
      <trkpt lat="45.31023" lon="5.836">
        <ele>1717.4399414062</ele>
        <time>2017-01-28T10:40:18Z</time>
      </trkpt>
      <trkpt lat="45.3103" lon="5.83597">
        <ele>1720.4399414062</ele>
        <time>2017-01-28T10:40:28Z</time>
      </trkpt>
      <trkpt lat="45.31037" lon="5.83596">
        <ele>1724.4399414062</ele>
        <time>2017-01-28T10:40:38Z</time>
      </trkpt>
      <trkpt lat="45.31042" lon="5.83587">
        <ele>1731.4399414062</ele>
        <time>2017-01-28T10:41:15Z</time>
      </trkpt>
      <trkpt lat="45.3104" lon="5.83576">
        <ele>1729.4399414062</ele>
        <time>2017-01-28T10:41:37Z</time>
      </trkpt>
      <trkpt lat="45.31043" lon="5.83566">
        <ele>1731.4399414062</ele>
        <time>2017-01-28T10:41:50Z</time>
      </trkpt>
      <trkpt lat="45.31049" lon="5.83561">
        <ele>1733.4399414062</ele>
        <time>2017-01-28T10:42:03Z</time>
      </trkpt>
      <trkpt lat="45.31058" lon="5.83558">
        <ele>1736.4399414062</ele>
        <time>2017-01-28T10:42:16Z</time>
      </trkpt>
      <trkpt lat="45.31066" lon="5.83556">
        <ele>1742.4399414062</ele>
        <time>2017-01-28T10:42:24Z</time>
      </trkpt>
      <trkpt lat="45.31073" lon="5.83553">
        <ele>1745.4399414062</ele>
        <time>2017-01-28T10:42:31Z</time>
      </trkpt>
      <trkpt lat="45.31081" lon="5.83552">
        <ele>1745.4399414062</ele>
        <time>2017-01-28T10:42:44Z</time>
      </trkpt>
      <trkpt lat="45.31089" lon="5.83548">
        <ele>1745.4399414062</ele>
        <time>2017-01-28T10:42:54Z</time>
      </trkpt>
      <trkpt lat="45.31096" lon="5.83544">
        <ele>1750.4399414062</ele>
        <time>2017-01-28T10:43:05Z</time>
      </trkpt>
      <trkpt lat="45.31104" lon="5.8354">
        <ele>1752.4399414062</ele>
        <time>2017-01-28T10:43:20Z</time>
      </trkpt>
      <trkpt lat="45.31112" lon="5.83539">
        <ele>1752.4399414062</ele>
        <time>2017-01-28T10:43:34Z</time>
      </trkpt>
      <trkpt lat="45.3112" lon="5.83542">
        <ele>1759.4399414062</ele>
        <time>2017-01-28T10:43:45Z</time>
      </trkpt>
      <trkpt lat="45.31128" lon="5.83543">
        <ele>1761.4399414062</ele>
        <time>2017-01-28T10:44:08Z</time>
      </trkpt>
      <trkpt lat="45.31143" lon="5.83542">
        <ele>1761.4399414062</ele>
        <time>2017-01-28T10:45:51Z</time>
      </trkpt>
      <trkpt lat="45.3115" lon="5.83543">
        <ele>1759.4399414062</ele>
        <time>2017-01-28T10:46:27Z</time>
      </trkpt>
      <trkpt lat="45.31166" lon="5.83549">
        <ele>1756.4399414062</ele>
        <time>2017-01-28T10:46:33Z</time>
      </trkpt>
      <trkpt lat="45.31182" lon="5.83558">
        <ele>1748.4399414062</ele>
        <time>2017-01-28T10:46:38Z</time>
      </trkpt>
      <trkpt lat="45.31207" lon="5.83563">
        <ele>1744.4399414062</ele>
        <time>2017-01-28T10:46:52Z</time>
      </trkpt>
      <trkpt lat="45.31222" lon="5.83572">
        <ele>1735.4399414062</ele>
        <time>2017-01-28T10:46:58Z</time>
      </trkpt>
      <trkpt lat="45.31246" lon="5.83563">
        <ele>1733.4399414062</ele>
        <time>2017-01-28T10:47:10Z</time>
      </trkpt>
      <trkpt lat="45.3126" lon="5.83557">
        <ele>1732.4399414062</ele>
        <time>2017-01-28T10:47:16Z</time>
      </trkpt>
      <trkpt lat="45.31256" lon="5.83532">
        <ele>1725.4399414062</ele>
        <time>2017-01-28T10:47:24Z</time>
      </trkpt>
      <trkpt lat="45.31276" lon="5.83521">
        <ele>1722.4399414062</ele>
        <time>2017-01-28T10:47:31Z</time>
      </trkpt>
      <trkpt lat="45.31292" lon="5.83513">
        <ele>1721.4399414062</ele>
        <time>2017-01-28T10:47:37Z</time>
      </trkpt>
      <trkpt lat="45.31313" lon="5.83509">
        <ele>1716.4399414062</ele>
        <time>2017-01-28T10:47:42Z</time>
      </trkpt>
      <trkpt lat="45.31353" lon="5.83496">
        <ele>1710.4410400391</ele>
        <time>2017-01-28T10:47:48Z</time>
      </trkpt>
      <trkpt lat="45.31363" lon="5.83489">
        <ele>1709.4410400391</ele>
        <time>2017-01-28T10:47:50Z</time>
      </trkpt>
      <trkpt lat="45.31355" lon="5.83485">
        <ele>1690.4410400391</ele>
        <time>2017-01-28T10:48:39Z</time>
      </trkpt>
      <trkpt lat="45.31339" lon="5.83472">
        <ele>1687.4399414062</ele>
        <time>2017-01-28T10:48:46Z</time>
      </trkpt>
      <trkpt lat="45.31362" lon="5.83452">
        <ele>1684.4399414062</ele>
        <time>2017-01-28T10:48:50Z</time>
      </trkpt>
      <trkpt lat="45.31376" lon="5.83412">
        <ele>1681.4399414062</ele>
        <time>2017-01-28T10:48:55Z</time>
      </trkpt>
      <trkpt lat="45.31385" lon="5.83412">
        <ele>1675.4399414062</ele>
        <time>2017-01-28T10:48:57Z</time>
      </trkpt>
      <trkpt lat="45.31415" lon="5.83396">
        <ele>1664.4410400391</ele>
        <time>2017-01-28T10:49:03Z</time>
      </trkpt>
      <trkpt lat="45.31418" lon="5.83348">
        <ele>1652.4399414062</ele>
        <time>2017-01-28T10:49:08Z</time>
      </trkpt>
      <trkpt lat="45.31422" lon="5.8329">
        <ele>1638.4399414062</ele>
        <time>2017-01-28T10:49:13Z</time>
      </trkpt>
      <trkpt lat="45.31437" lon="5.83246">
        <ele>1611.4399414062</ele>
        <time>2017-01-28T10:49:20Z</time>
      </trkpt>
      <trkpt lat="45.31446" lon="5.83222">
        <ele>1617.4399414062</ele>
        <time>2017-01-28T10:49:26Z</time>
      </trkpt>
      <trkpt lat="45.31456" lon="5.83204">
        <ele>1619.4399414062</ele>
        <time>2017-01-28T10:49:41Z</time>
      </trkpt>
      <trkpt lat="45.31461" lon="5.83179">
        <ele>1615.4399414062</ele>
        <time>2017-01-28T10:49:48Z</time>
      </trkpt>
      <trkpt lat="45.31471" lon="5.83135">
        <ele>1609.4399414062</ele>
        <time>2017-01-28T10:49:54Z</time>
      </trkpt>
      <trkpt lat="45.31479" lon="5.83092">
        <ele>1603.4399414062</ele>
        <time>2017-01-28T10:50:00Z</time>
      </trkpt>
      <trkpt lat="45.31496" lon="5.83055">
        <ele>1599.4399414062</ele>
        <time>2017-01-28T10:50:05Z</time>
      </trkpt>
      <trkpt lat="45.31505" lon="5.83049">
        <ele>1596.4399414062</ele>
        <time>2017-01-28T10:50:08Z</time>
      </trkpt>
      <trkpt lat="45.31506" lon="5.83027">
        <ele>1591.4399414062</ele>
        <time>2017-01-28T10:50:16Z</time>
      </trkpt>
      <trkpt lat="45.31513" lon="5.83024">
        <ele>1590.4399414062</ele>
        <time>2017-01-28T10:50:25Z</time>
      </trkpt>
      <trkpt lat="45.31509" lon="5.83012">
        <ele>1589.4399414062</ele>
        <time>2017-01-28T10:50:28Z</time>
      </trkpt>
      <trkpt lat="45.31514" lon="5.83003">
        <ele>1582.4399414062</ele>
        <time>2017-01-28T10:50:33Z</time>
      </trkpt>
      <trkpt lat="45.31517" lon="5.82992">
        <ele>1581.4399414062</ele>
        <time>2017-01-28T10:50:38Z</time>
      </trkpt>
      <trkpt lat="45.3152" lon="5.82967">
        <ele>1579.4399414062</ele>
        <time>2017-01-28T10:50:43Z</time>
      </trkpt>
      <trkpt lat="45.31525" lon="5.82943">
        <ele>1570.4399414062</ele>
        <time>2017-01-28T10:50:49Z</time>
      </trkpt>
      <trkpt lat="45.3153" lon="5.82934">
        <ele>1570.4399414062</ele>
        <time>2017-01-28T10:50:53Z</time>
      </trkpt>
      <trkpt lat="45.31522" lon="5.82927">
        <ele>1565.4399414062</ele>
        <time>2017-01-28T10:51:02Z</time>
      </trkpt>
      <trkpt lat="45.31521" lon="5.82909">
        <ele>1558.4399414062</ele>
        <time>2017-01-28T10:51:08Z</time>
      </trkpt>
      <trkpt lat="45.31526" lon="5.829">
        <ele>1556.4399414062</ele>
        <time>2017-01-28T10:51:11Z</time>
      </trkpt>
      <trkpt lat="45.31527" lon="5.82888">
        <ele>1550.4399414062</ele>
        <time>2017-01-28T10:51:22Z</time>
      </trkpt>
      <trkpt lat="45.31527" lon="5.82878">
        <ele>1559.4399414062</ele>
        <time>2017-01-28T10:52:12Z</time>
      </trkpt>
      <trkpt lat="45.31543" lon="5.82853">
        <ele>1556.4399414062</ele>
        <time>2017-01-28T10:52:22Z</time>
      </trkpt>
      <trkpt lat="45.31538" lon="5.82828">
        <ele>1545.4399414062</ele>
        <time>2017-01-28T10:52:28Z</time>
      </trkpt>
      <trkpt lat="45.31533" lon="5.82819">
        <ele>1534.4399414062</ele>
        <time>2017-01-28T10:52:36Z</time>
      </trkpt>
      <trkpt lat="45.31529" lon="5.82807">
        <ele>1531.4399414062</ele>
        <time>2017-01-28T10:52:42Z</time>
      </trkpt>
      <trkpt lat="45.31528" lon="5.82796">
        <ele>1524.4399414062</ele>
        <time>2017-01-28T10:52:46Z</time>
      </trkpt>
      <trkpt lat="45.31526" lon="5.82773">
        <ele>1521.4399414062</ele>
        <time>2017-01-28T10:52:55Z</time>
      </trkpt>
      <trkpt lat="45.31511" lon="5.82759">
        <ele>1517.4399414062</ele>
        <time>2017-01-28T10:53:05Z</time>
      </trkpt>
      <trkpt lat="45.31505" lon="5.82754">
        <ele>1505.4399414062</ele>
        <time>2017-01-28T10:53:12Z</time>
      </trkpt>
      <trkpt lat="45.31499" lon="5.82748">
        <ele>1512.4399414062</ele>
        <time>2017-01-28T10:53:47Z</time>
      </trkpt>
      <trkpt lat="45.31493" lon="5.8274">
        <ele>1511.4399414062</ele>
        <time>2017-01-28T10:54:18Z</time>
      </trkpt>
      <trkpt lat="45.31486" lon="5.82735">
        <ele>1514.4399414062</ele>
        <time>2017-01-28T10:54:33Z</time>
      </trkpt>
      <trkpt lat="45.31479" lon="5.8273">
        <ele>1513.4399414062</ele>
        <time>2017-01-28T10:54:39Z</time>
      </trkpt>
      <trkpt lat="45.3147" lon="5.82728">
        <ele>1512.4399414062</ele>
        <time>2017-01-28T10:54:45Z</time>
      </trkpt>
      <trkpt lat="45.31455" lon="5.82721">
        <ele>1507.4399414062</ele>
        <time>2017-01-28T10:54:53Z</time>
      </trkpt>
      <trkpt lat="45.31441" lon="5.82721">
        <ele>1504.4399414062</ele>
        <time>2017-01-28T10:55:03Z</time>
      </trkpt>
      <trkpt lat="45.31433" lon="5.82722">
        <ele>1508.4399414062</ele>
        <time>2017-01-28T10:55:11Z</time>
      </trkpt>
      <trkpt lat="45.31426" lon="5.82725">
        <ele>1508.4399414062</ele>
        <time>2017-01-28T10:55:16Z</time>
      </trkpt>
      <trkpt lat="45.31411" lon="5.82719">
        <ele>1508.4399414062</ele>
        <time>2017-01-28T10:55:26Z</time>
      </trkpt>
      <trkpt lat="45.31399" lon="5.82702">
        <ele>1508.4399414062</ele>
        <time>2017-01-28T10:55:32Z</time>
      </trkpt>
      <trkpt lat="45.31384" lon="5.82689">
        <ele>1500.4399414062</ele>
        <time>2017-01-28T10:55:39Z</time>
      </trkpt>
      <trkpt lat="45.3137" lon="5.82695">
        <ele>1497.4389648438</ele>
        <time>2017-01-28T10:55:49Z</time>
      </trkpt>
      <trkpt lat="45.31363" lon="5.82688">
        <ele>1500.4389648438</ele>
        <time>2017-01-28T10:55:55Z</time>
      </trkpt>
      <trkpt lat="45.31355" lon="5.82682">
        <ele>1500.4389648438</ele>
        <time>2017-01-28T10:56:00Z</time>
      </trkpt>
      <trkpt lat="45.3134" lon="5.82674">
        <ele>1498.4389648438</ele>
        <time>2017-01-28T10:56:09Z</time>
      </trkpt>
      <trkpt lat="45.31334" lon="5.82662">
        <ele>1496.4389648438</ele>
        <time>2017-01-28T10:56:15Z</time>
      </trkpt>
      <trkpt lat="45.31319" lon="5.82632">
        <ele>1485.4389648438</ele>
        <time>2017-01-28T10:56:23Z</time>
      </trkpt>
      <trkpt lat="45.31306" lon="5.82612">
        <ele>1484.4389648438</ele>
        <time>2017-01-28T10:56:30Z</time>
      </trkpt>
      <trkpt lat="45.31308" lon="5.8259">
        <ele>1486.4389648438</ele>
        <time>2017-01-28T10:56:36Z</time>
      </trkpt>
      <trkpt lat="45.31309" lon="5.82579">
        <ele>1485.4389648438</ele>
        <time>2017-01-28T10:56:41Z</time>
      </trkpt>
      <trkpt lat="45.31305" lon="5.82549">
        <ele>1482.4389648438</ele>
        <time>2017-01-28T10:56:48Z</time>
      </trkpt>
      <trkpt lat="45.31299" lon="5.82507">
        <ele>1481.4389648438</ele>
        <time>2017-01-28T10:56:53Z</time>
      </trkpt>
      <trkpt lat="45.31297" lon="5.82495">
        <ele>1479.4389648438</ele>
        <time>2017-01-28T10:56:55Z</time>
      </trkpt>
      <trkpt lat="45.31296" lon="5.82481">
        <ele>1473.4389648438</ele>
        <time>2017-01-28T10:56:57Z</time>
      </trkpt>
      <trkpt lat="45.31283" lon="5.82451">
        <ele>1462.4389648438</ele>
        <time>2017-01-28T10:57:04Z</time>
      </trkpt>
      <trkpt lat="45.31273" lon="5.82429">
        <ele>1462.4389648438</ele>
        <time>2017-01-28T10:57:10Z</time>
      </trkpt>
      <trkpt lat="45.31269" lon="5.8242">
        <ele>1460.4389648438</ele>
        <time>2017-01-28T10:57:14Z</time>
      </trkpt>
      <trkpt lat="45.31262" lon="5.82417">
        <ele>1458.4389648438</ele>
        <time>2017-01-28T10:57:21Z</time>
      </trkpt>
      <trkpt lat="45.31255" lon="5.82409">
        <ele>1454.4389648438</ele>
        <time>2017-01-28T10:59:29Z</time>
      </trkpt>
      <trkpt lat="45.3124" lon="5.82399">
        <ele>1446.4389648438</ele>
        <time>2017-01-28T10:59:38Z</time>
      </trkpt>
      <trkpt lat="45.31226" lon="5.82393">
        <ele>1440.4389648438</ele>
        <time>2017-01-28T10:59:53Z</time>
      </trkpt>
      <trkpt lat="45.31219" lon="5.82391">
        <ele>1441.4389648438</ele>
        <time>2017-01-28T11:00:03Z</time>
      </trkpt>
      <trkpt lat="45.31209" lon="5.82392">
        <ele>1443.4389648438</ele>
        <time>2017-01-28T11:00:58Z</time>
      </trkpt>
      <trkpt lat="45.31202" lon="5.8239">
        <ele>1442.4389648438</ele>
        <time>2017-01-28T11:01:03Z</time>
      </trkpt>
      <trkpt lat="45.31194" lon="5.82386">
        <ele>1443.4389648438</ele>
        <time>2017-01-28T11:01:10Z</time>
      </trkpt>
      <trkpt lat="45.31185" lon="5.82387">
        <ele>1445.4389648438</ele>
        <time>2017-01-28T11:01:17Z</time>
      </trkpt>
      <trkpt lat="45.31178" lon="5.82388">
        <ele>1443.4389648438</ele>
        <time>2017-01-28T11:01:25Z</time>
      </trkpt>
      <trkpt lat="45.31171" lon="5.82393">
        <ele>1443.4389648438</ele>
        <time>2017-01-28T11:01:38Z</time>
      </trkpt>
      <trkpt lat="45.31163" lon="5.82393">
        <ele>1447.4389648438</ele>
        <time>2017-01-28T11:01:54Z</time>
      </trkpt>
      <trkpt lat="45.31156" lon="5.82399">
        <ele>1446.4389648438</ele>
        <time>2017-01-28T11:02:02Z</time>
      </trkpt>
      <trkpt lat="45.31149" lon="5.82405">
        <ele>1448.4389648438</ele>
        <time>2017-01-28T11:02:09Z</time>
      </trkpt>
      <trkpt lat="45.31143" lon="5.82414">
        <ele>1444.4389648438</ele>
        <time>2017-01-28T11:02:14Z</time>
      </trkpt>
      <trkpt lat="45.31136" lon="5.82419">
        <ele>1445.4389648438</ele>
        <time>2017-01-28T11:02:22Z</time>
      </trkpt>
      <trkpt lat="45.3113" lon="5.82424">
        <ele>1446.4389648438</ele>
        <time>2017-01-28T11:02:30Z</time>
      </trkpt>
      <trkpt lat="45.31123" lon="5.82432">
        <ele>1446.4389648438</ele>
        <time>2017-01-28T11:02:38Z</time>
      </trkpt>
      <trkpt lat="45.31115" lon="5.82436">
        <ele>1446.4389648438</ele>
        <time>2017-01-28T11:02:44Z</time>
      </trkpt>
      <trkpt lat="45.31102" lon="5.8245">
        <ele>1443.4389648438</ele>
        <time>2017-01-28T11:02:50Z</time>
      </trkpt>
      <trkpt lat="45.31094" lon="5.82452">
        <ele>1442.4389648438</ele>
        <time>2017-01-28T11:02:56Z</time>
      </trkpt>
      <trkpt lat="45.31088" lon="5.82448">
        <ele>1439.4389648438</ele>
        <time>2017-01-28T11:03:01Z</time>
      </trkpt>
      <trkpt lat="45.3108" lon="5.82445">
        <ele>1436.4389648438</ele>
        <time>2017-01-28T11:03:06Z</time>
      </trkpt>
      <trkpt lat="45.31073" lon="5.8244">
        <ele>1435.4389648438</ele>
        <time>2017-01-28T11:03:11Z</time>
      </trkpt>
      <trkpt lat="45.31066" lon="5.8244">
        <ele>1432.4389648438</ele>
        <time>2017-01-28T11:03:16Z</time>
      </trkpt>
      <trkpt lat="45.31059" lon="5.82434">
        <ele>1431.4379882812</ele>
        <time>2017-01-28T11:03:23Z</time>
      </trkpt>
      <trkpt lat="45.31052" lon="5.82428">
        <ele>1434.4379882812</ele>
        <time>2017-01-28T11:03:29Z</time>
      </trkpt>
      <trkpt lat="45.31038" lon="5.82416">
        <ele>1435.4379882812</ele>
        <time>2017-01-28T11:03:38Z</time>
      </trkpt>
      <trkpt lat="45.31029" lon="5.82414">
        <ele>1434.4379882812</ele>
        <time>2017-01-28T11:03:45Z</time>
      </trkpt>
      <trkpt lat="45.31021" lon="5.82412">
        <ele>1435.4379882812</ele>
        <time>2017-01-28T11:03:51Z</time>
      </trkpt>
      <trkpt lat="45.31012" lon="5.82411">
        <ele>1434.4379882812</ele>
        <time>2017-01-28T11:03:56Z</time>
      </trkpt>
      <trkpt lat="45.31003" lon="5.8241">
        <ele>1439.4379882812</ele>
        <time>2017-01-28T11:04:01Z</time>
      </trkpt>
      <trkpt lat="45.30997" lon="5.82415">
        <ele>1435.4379882812</ele>
        <time>2017-01-28T11:04:10Z</time>
      </trkpt>
      <trkpt lat="45.3099" lon="5.82419">
        <ele>1439.4379882812</ele>
        <time>2017-01-28T11:04:15Z</time>
      </trkpt>
      <trkpt lat="45.30984" lon="5.82425">
        <ele>1440.4379882812</ele>
        <time>2017-01-28T11:04:21Z</time>
      </trkpt>
      <trkpt lat="45.30978" lon="5.82433">
        <ele>1443.4379882812</ele>
        <time>2017-01-28T11:04:29Z</time>
      </trkpt>
      <trkpt lat="45.30972" lon="5.82441">
        <ele>1445.4379882812</ele>
        <time>2017-01-28T11:04:34Z</time>
      </trkpt>
      <trkpt lat="45.30958" lon="5.8245">
        <ele>1442.4379882812</ele>
        <time>2017-01-28T11:04:43Z</time>
      </trkpt>
      <trkpt lat="45.30945" lon="5.82444">
        <ele>1444.4379882812</ele>
        <time>2017-01-28T11:04:52Z</time>
      </trkpt>
      <trkpt lat="45.30938" lon="5.8244">
        <ele>1442.4379882812</ele>
        <time>2017-01-28T11:04:56Z</time>
      </trkpt>
      <trkpt lat="45.30931" lon="5.82434">
        <ele>1446.4379882812</ele>
        <time>2017-01-28T11:05:01Z</time>
      </trkpt>
      <trkpt lat="45.30923" lon="5.82434">
        <ele>1445.4379882812</ele>
        <time>2017-01-28T11:05:07Z</time>
      </trkpt>
      <trkpt lat="45.3091" lon="5.82431">
        <ele>1444.4379882812</ele>
        <time>2017-01-28T11:05:15Z</time>
      </trkpt>
      <trkpt lat="45.30901" lon="5.82432">
        <ele>1437.4379882812</ele>
        <time>2017-01-28T11:05:20Z</time>
      </trkpt>
      <trkpt lat="45.30886" lon="5.82429">
        <ele>1436.4379882812</ele>
        <time>2017-01-28T11:05:27Z</time>
      </trkpt>
      <trkpt lat="45.30878" lon="5.82435">
        <ele>1435.4379882812</ele>
        <time>2017-01-28T11:05:34Z</time>
      </trkpt>
      <trkpt lat="45.30871" lon="5.8244">
        <ele>1438.4379882812</ele>
        <time>2017-01-28T11:05:39Z</time>
      </trkpt>
      <trkpt lat="45.30866" lon="5.82451">
        <ele>1437.4379882812</ele>
        <time>2017-01-28T11:05:43Z</time>
      </trkpt>
      <trkpt lat="45.30863" lon="5.82461">
        <ele>1435.4379882812</ele>
        <time>2017-01-28T11:05:48Z</time>
      </trkpt>
      <trkpt lat="45.30859" lon="5.82484">
        <ele>1445.4379882812</ele>
        <time>2017-01-28T11:05:57Z</time>
      </trkpt>
      <trkpt lat="45.30862" lon="5.82494">
        <ele>1443.4379882812</ele>
        <time>2017-01-28T11:06:02Z</time>
      </trkpt>
      <trkpt lat="45.30864" lon="5.82505">
        <ele>1444.4379882812</ele>
        <time>2017-01-28T11:06:07Z</time>
      </trkpt>
      <trkpt lat="45.30867" lon="5.82516">
        <ele>1445.4379882812</ele>
        <time>2017-01-28T11:06:13Z</time>
      </trkpt>
      <trkpt lat="45.3087" lon="5.82527">
        <ele>1448.4379882812</ele>
        <time>2017-01-28T11:06:18Z</time>
      </trkpt>
      <trkpt lat="45.30868" lon="5.8255">
        <ele>1450.4379882812</ele>
        <time>2017-01-28T11:06:27Z</time>
      </trkpt>
      <trkpt lat="45.30868" lon="5.82573">
        <ele>1456.4379882812</ele>
        <time>2017-01-28T11:06:35Z</time>
      </trkpt>
      <trkpt lat="45.30869" lon="5.82584">
        <ele>1459.4379882812</ele>
        <time>2017-01-28T11:06:40Z</time>
      </trkpt>
      <trkpt lat="45.3087" lon="5.82597">
        <ele>1461.4379882812</ele>
        <time>2017-01-28T11:06:45Z</time>
      </trkpt>
      <trkpt lat="45.30868" lon="5.82607">
        <ele>1464.4379882812</ele>
        <time>2017-01-28T11:06:50Z</time>
      </trkpt>
      <trkpt lat="45.30865" lon="5.82617">
        <ele>1465.4379882812</ele>
        <time>2017-01-28T11:07:02Z</time>
      </trkpt>
      <trkpt lat="45.30865" lon="5.82629">
        <ele>1464.4379882812</ele>
        <time>2017-01-28T11:07:12Z</time>
      </trkpt>
      <trkpt lat="45.30874" lon="5.82628">
        <ele>1465.4379882812</ele>
        <time>2017-01-28T11:07:22Z</time>
      </trkpt>
      <trkpt lat="45.30882" lon="5.82628">
        <ele>1464.4379882812</ele>
        <time>2017-01-28T11:07:38Z</time>
      </trkpt>
      <trkpt lat="45.3089" lon="5.82628">
        <ele>1462.4379882812</ele>
        <time>2017-01-28T11:07:45Z</time>
      </trkpt>
      <trkpt lat="45.30897" lon="5.82626">
        <ele>1464.4379882812</ele>
        <time>2017-01-28T11:07:53Z</time>
      </trkpt>
      <trkpt lat="45.30904" lon="5.82629">
        <ele>1461.4379882812</ele>
        <time>2017-01-28T11:08:00Z</time>
      </trkpt>
      <trkpt lat="45.30912" lon="5.82628">
        <ele>1463.4379882812</ele>
        <time>2017-01-28T11:08:06Z</time>
      </trkpt>
      <trkpt lat="45.3092" lon="5.82625">
        <ele>1462.4379882812</ele>
        <time>2017-01-28T11:08:13Z</time>
      </trkpt>
      <trkpt lat="45.3092" lon="5.82636">
        <ele>1464.4379882812</ele>
        <time>2017-01-28T11:08:25Z</time>
      </trkpt>
      <trkpt lat="45.30918" lon="5.82646">
        <ele>1471.4379882812</ele>
        <time>2017-01-28T11:08:31Z</time>
      </trkpt>
      <trkpt lat="45.30914" lon="5.82656">
        <ele>1474.4379882812</ele>
        <time>2017-01-28T11:08:40Z</time>
      </trkpt>
      <trkpt lat="45.30909" lon="5.82663">
        <ele>1477.4379882812</ele>
        <time>2017-01-28T11:08:49Z</time>
      </trkpt>
      <trkpt lat="45.30905" lon="5.82672">
        <ele>1479.4379882812</ele>
        <time>2017-01-28T11:08:55Z</time>
      </trkpt>
      <trkpt lat="45.30911" lon="5.82679">
        <ele>1483.4389648438</ele>
        <time>2017-01-28T11:09:11Z</time>
      </trkpt>
      <trkpt lat="45.30918" lon="5.82684">
        <ele>1485.4389648438</ele>
        <time>2017-01-28T11:09:17Z</time>
      </trkpt>
      <trkpt lat="45.30926" lon="5.82688">
        <ele>1493.4389648438</ele>
        <time>2017-01-28T11:09:26Z</time>
      </trkpt>
      <trkpt lat="45.3093" lon="5.82696">
        <ele>1494.4389648438</ele>
        <time>2017-01-28T11:10:08Z</time>
      </trkpt>
      <trkpt lat="45.30935" lon="5.82703">
        <ele>1494.4389648438</ele>
        <time>2017-01-28T11:10:18Z</time>
      </trkpt>
      <trkpt lat="45.30941" lon="5.82711">
        <ele>1500.4389648438</ele>
        <time>2017-01-28T11:10:26Z</time>
      </trkpt>
      <trkpt lat="45.30945" lon="5.8272">
        <ele>1503.4389648438</ele>
        <time>2017-01-28T11:10:33Z</time>
      </trkpt>
      <trkpt lat="45.30948" lon="5.8273">
        <ele>1506.4389648438</ele>
        <time>2017-01-28T11:10:41Z</time>
      </trkpt>
      <trkpt lat="45.30951" lon="5.8274">
        <ele>1506.4389648438</ele>
        <time>2017-01-28T11:10:50Z</time>
      </trkpt>
      <trkpt lat="45.30955" lon="5.8275">
        <ele>1511.4389648438</ele>
        <time>2017-01-28T11:10:59Z</time>
      </trkpt>
      <trkpt lat="45.30961" lon="5.82757">
        <ele>1513.4389648438</ele>
        <time>2017-01-28T11:11:07Z</time>
      </trkpt>
      <trkpt lat="45.30965" lon="5.82766">
        <ele>1511.4389648438</ele>
        <time>2017-01-28T11:11:17Z</time>
      </trkpt>
      <trkpt lat="45.3097" lon="5.82773">
        <ele>1512.4389648438</ele>
        <time>2017-01-28T11:11:25Z</time>
      </trkpt>
      <trkpt lat="45.30975" lon="5.82782">
        <ele>1519.4389648438</ele>
        <time>2017-01-28T11:11:35Z</time>
      </trkpt>
      <trkpt lat="45.3098" lon="5.8279">
        <ele>1523.4389648438</ele>
        <time>2017-01-28T11:11:44Z</time>
      </trkpt>
      <trkpt lat="45.30985" lon="5.82797">
        <ele>1526.4389648438</ele>
        <time>2017-01-28T11:11:53Z</time>
      </trkpt>
      <trkpt lat="45.30985" lon="5.82808">
        <ele>1526.4389648438</ele>
        <time>2017-01-28T11:12:01Z</time>
      </trkpt>
      <trkpt lat="45.30989" lon="5.82817">
        <ele>1529.4389648438</ele>
        <time>2017-01-28T11:12:10Z</time>
      </trkpt>
      <trkpt lat="45.30991" lon="5.82828">
        <ele>1533.4389648438</ele>
        <time>2017-01-28T11:12:18Z</time>
      </trkpt>
      <trkpt lat="45.30995" lon="5.82837">
        <ele>1532.4389648438</ele>
        <time>2017-01-28T11:12:26Z</time>
      </trkpt>
      <trkpt lat="45.31002" lon="5.82842">
        <ele>1533.4389648438</ele>
        <time>2017-01-28T11:12:33Z</time>
      </trkpt>
      <trkpt lat="45.31009" lon="5.82846">
        <ele>1536.4389648438</ele>
        <time>2017-01-28T11:12:40Z</time>
      </trkpt>
      <trkpt lat="45.31016" lon="5.82849">
        <ele>1590.4389648438</ele>
        <time>2017-01-28T11:12:50Z</time>
      </trkpt>
      <trkpt lat="45.31023" lon="5.82854">
        <ele>1550.4389648438</ele>
        <time>2017-01-28T11:13:01Z</time>
      </trkpt>
      <trkpt lat="45.3103" lon="5.8286">
        <ele>1540.4389648438</ele>
        <time>2017-01-28T11:13:20Z</time>
      </trkpt>
      <trkpt lat="45.31036" lon="5.82866">
        <ele>1541.4389648438</ele>
        <time>2017-01-28T11:13:30Z</time>
      </trkpt>
      <trkpt lat="45.31041" lon="5.82874">
        <ele>1541.4389648438</ele>
        <time>2017-01-28T11:13:40Z</time>
      </trkpt>
      <trkpt lat="45.31042" lon="5.82885">
        <ele>1544.4389648438</ele>
        <time>2017-01-28T11:13:49Z</time>
      </trkpt>
      <trkpt lat="45.31049" lon="5.82892">
        <ele>1547.4389648438</ele>
        <time>2017-01-28T11:14:07Z</time>
      </trkpt>
      <trkpt lat="45.31057" lon="5.82893">
        <ele>1546.4389648438</ele>
        <time>2017-01-28T11:14:12Z</time>
      </trkpt>
      <trkpt lat="45.31065" lon="5.82894">
        <ele>1552.4389648438</ele>
        <time>2017-01-28T11:14:18Z</time>
      </trkpt>
      <trkpt lat="45.31072" lon="5.82895">
        <ele>1554.4389648438</ele>
        <time>2017-01-28T11:14:23Z</time>
      </trkpt>
      <trkpt lat="45.3108" lon="5.82896">
        <ele>1553.4389648438</ele>
        <time>2017-01-28T11:14:28Z</time>
      </trkpt>
      <trkpt lat="45.31088" lon="5.82899">
        <ele>1556.4389648438</ele>
        <time>2017-01-28T11:14:35Z</time>
      </trkpt>
      <trkpt lat="45.31096" lon="5.82901">
        <ele>1557.4389648438</ele>
        <time>2017-01-28T11:14:41Z</time>
      </trkpt>
      <trkpt lat="45.31103" lon="5.82903">
        <ele>1561.4389648438</ele>
        <time>2017-01-28T11:14:49Z</time>
      </trkpt>
      <trkpt lat="45.31111" lon="5.82904">
        <ele>1564.4389648438</ele>
        <time>2017-01-28T11:14:56Z</time>
      </trkpt>
      <trkpt lat="45.31118" lon="5.82905">
        <ele>1564.4389648438</ele>
        <time>2017-01-28T11:15:04Z</time>
      </trkpt>
      <trkpt lat="45.31126" lon="5.82908">
        <ele>1567.4389648438</ele>
        <time>2017-01-28T11:15:13Z</time>
      </trkpt>
      <trkpt lat="45.31134" lon="5.82909">
        <ele>1571.4389648438</ele>
        <time>2017-01-28T11:15:19Z</time>
      </trkpt>
      <trkpt lat="45.31141" lon="5.82911">
        <ele>1568.4389648438</ele>
        <time>2017-01-28T11:15:27Z</time>
      </trkpt>
      <trkpt lat="45.31148" lon="5.82914">
        <ele>1569.4389648438</ele>
        <time>2017-01-28T11:15:32Z</time>
      </trkpt>
      <trkpt lat="45.31156" lon="5.82917">
        <ele>1575.4389648438</ele>
        <time>2017-01-28T11:15:42Z</time>
      </trkpt>
      <trkpt lat="45.31165" lon="5.82921">
        <ele>1575.4389648438</ele>
        <time>2017-01-28T11:15:49Z</time>
      </trkpt>
      <trkpt lat="45.31171" lon="5.82927">
        <ele>1578.4389648438</ele>
        <time>2017-01-28T11:15:57Z</time>
      </trkpt>
      <trkpt lat="45.31179" lon="5.82929">
        <ele>1581.4389648438</ele>
        <time>2017-01-28T11:16:03Z</time>
      </trkpt>
      <trkpt lat="45.31183" lon="5.82939">
        <ele>1583.4389648438</ele>
        <time>2017-01-28T11:16:11Z</time>
      </trkpt>
      <trkpt lat="45.31178" lon="5.8295">
        <ele>1585.4389648438</ele>
        <time>2017-01-28T11:16:18Z</time>
      </trkpt>
      <trkpt lat="45.31173" lon="5.82957">
        <ele>1584.4389648438</ele>
        <time>2017-01-28T11:16:26Z</time>
      </trkpt>
      <trkpt lat="45.31167" lon="5.82965">
        <ele>1585.4389648438</ele>
        <time>2017-01-28T11:16:33Z</time>
      </trkpt>
      <trkpt lat="45.31161" lon="5.82973">
        <ele>1587.4389648438</ele>
        <time>2017-01-28T11:16:38Z</time>
      </trkpt>
      <trkpt lat="45.31156" lon="5.82981">
        <ele>1586.4389648438</ele>
        <time>2017-01-28T11:16:44Z</time>
      </trkpt>
      <trkpt lat="45.31151" lon="5.82989">
        <ele>1588.4389648438</ele>
        <time>2017-01-28T11:16:51Z</time>
      </trkpt>
      <trkpt lat="45.31147" lon="5.82999">
        <ele>1592.4389648438</ele>
        <time>2017-01-28T11:17:01Z</time>
      </trkpt>
      <trkpt lat="45.31142" lon="5.83008">
        <ele>1595.4389648438</ele>
        <time>2017-01-28T11:17:09Z</time>
      </trkpt>
      <trkpt lat="45.31137" lon="5.83016">
        <ele>1596.4389648438</ele>
        <time>2017-01-28T11:17:16Z</time>
      </trkpt>
      <trkpt lat="45.31132" lon="5.83025">
        <ele>1597.4389648438</ele>
        <time>2017-01-28T11:17:24Z</time>
      </trkpt>
      <trkpt lat="45.31128" lon="5.83035">
        <ele>1599.4389648438</ele>
        <time>2017-01-28T11:17:32Z</time>
      </trkpt>
      <trkpt lat="45.31129" lon="5.83047">
        <ele>1600.4389648438</ele>
        <time>2017-01-28T11:17:41Z</time>
      </trkpt>
      <trkpt lat="45.31127" lon="5.83057">
        <ele>1606.4389648438</ele>
        <time>2017-01-28T11:17:50Z</time>
      </trkpt>
      <trkpt lat="45.31126" lon="5.83069">
        <ele>1605.4389648438</ele>
        <time>2017-01-28T11:17:58Z</time>
      </trkpt>
      <trkpt lat="45.31128" lon="5.83079">
        <ele>1607.4399414062</ele>
        <time>2017-01-28T11:18:05Z</time>
      </trkpt>
      <trkpt lat="45.31129" lon="5.8309">
        <ele>1606.4399414062</ele>
        <time>2017-01-28T11:18:14Z</time>
      </trkpt>
      <trkpt lat="45.31129" lon="5.83101">
        <ele>1609.4399414062</ele>
        <time>2017-01-28T11:18:23Z</time>
      </trkpt>
      <trkpt lat="45.31129" lon="5.83112">
        <ele>1609.4399414062</ele>
        <time>2017-01-28T11:18:32Z</time>
      </trkpt>
      <trkpt lat="45.31131" lon="5.83123">
        <ele>1615.4399414062</ele>
        <time>2017-01-28T11:18:39Z</time>
      </trkpt>
      <trkpt lat="45.31134" lon="5.83132">
        <ele>1616.4399414062</ele>
        <time>2017-01-28T11:18:49Z</time>
      </trkpt>
      <trkpt lat="45.31135" lon="5.83143">
        <ele>1616.4399414062</ele>
        <time>2017-01-28T11:18:56Z</time>
      </trkpt>
      <trkpt lat="45.31137" lon="5.83153">
        <ele>1616.4399414062</ele>
        <time>2017-01-28T11:19:02Z</time>
      </trkpt>
      <trkpt lat="45.31142" lon="5.83162">
        <ele>1625.4399414062</ele>
        <time>2017-01-28T11:19:12Z</time>
      </trkpt>
      <trkpt lat="45.3114" lon="5.83172">
        <ele>1625.4399414062</ele>
        <time>2017-01-28T11:19:17Z</time>
      </trkpt>
      <trkpt lat="45.31135" lon="5.8318">
        <ele>1627.4399414062</ele>
        <time>2017-01-28T11:19:28Z</time>
      </trkpt>
      <trkpt lat="45.31128" lon="5.83186">
        <ele>1627.4399414062</ele>
        <time>2017-01-28T11:19:35Z</time>
      </trkpt>
      <trkpt lat="45.31121" lon="5.8319">
        <ele>1632.4399414062</ele>
        <time>2017-01-28T11:19:42Z</time>
      </trkpt>
      <trkpt lat="45.31114" lon="5.83197">
        <ele>1634.4399414062</ele>
        <time>2017-01-28T11:19:50Z</time>
      </trkpt>
      <trkpt lat="45.31106" lon="5.83198">
        <ele>1636.4399414062</ele>
        <time>2017-01-28T11:20:02Z</time>
      </trkpt>
      <trkpt lat="45.31102" lon="5.83207">
        <ele>1637.4399414062</ele>
        <time>2017-01-28T11:20:19Z</time>
      </trkpt>
      <trkpt lat="45.31106" lon="5.83217">
        <ele>1637.4399414062</ele>
        <time>2017-01-28T11:20:32Z</time>
      </trkpt>
      <trkpt lat="45.31099" lon="5.83216">
        <ele>1638.4399414062</ele>
        <time>2017-01-28T11:20:42Z</time>
      </trkpt>
      <trkpt lat="45.31091" lon="5.83215">
        <ele>1641.4399414062</ele>
        <time>2017-01-28T11:20:54Z</time>
      </trkpt>
      <trkpt lat="45.31082" lon="5.83217">
        <ele>1646.4399414062</ele>
        <time>2017-01-28T11:21:11Z</time>
      </trkpt>
      <trkpt lat="45.31074" lon="5.83219">
        <ele>1643.4399414062</ele>
        <time>2017-01-28T11:21:18Z</time>
      </trkpt>
      <trkpt lat="45.31067" lon="5.83222">
        <ele>1644.4399414062</ele>
        <time>2017-01-28T11:21:34Z</time>
      </trkpt>
      <trkpt lat="45.31061" lon="5.83227">
        <ele>1644.4399414062</ele>
        <time>2017-01-28T11:21:41Z</time>
      </trkpt>
      <trkpt lat="45.31054" lon="5.83232">
        <ele>1646.4399414062</ele>
        <time>2017-01-28T11:21:50Z</time>
      </trkpt>
      <trkpt lat="45.3105" lon="5.83241">
        <ele>1649.4399414062</ele>
        <time>2017-01-28T11:21:58Z</time>
      </trkpt>
      <trkpt lat="45.31046" lon="5.8325">
        <ele>1652.4399414062</ele>
        <time>2017-01-28T11:22:07Z</time>
      </trkpt>
      <trkpt lat="45.31043" lon="5.83261">
        <ele>1653.4399414062</ele>
        <time>2017-01-28T11:22:19Z</time>
      </trkpt>
      <trkpt lat="45.31043" lon="5.83273">
        <ele>1655.4399414062</ele>
        <time>2017-01-28T11:22:29Z</time>
      </trkpt>
      <trkpt lat="45.31051" lon="5.83276">
        <ele>1657.4399414062</ele>
        <time>2017-01-28T11:22:42Z</time>
      </trkpt>
      <trkpt lat="45.31053" lon="5.83286">
        <ele>1662.4399414062</ele>
        <time>2017-01-28T11:23:00Z</time>
      </trkpt>
      <trkpt lat="45.31052" lon="5.83297">
        <ele>1666.4399414062</ele>
        <time>2017-01-28T11:23:08Z</time>
      </trkpt>
      <trkpt lat="45.31055" lon="5.83306">
        <ele>1667.4399414062</ele>
        <time>2017-01-28T11:23:32Z</time>
      </trkpt>
      <trkpt lat="45.31055" lon="5.83316">
        <ele>1668.4399414062</ele>
        <time>2017-01-28T11:23:44Z</time>
      </trkpt>
      <trkpt lat="45.31063" lon="5.83315">
        <ele>1672.4399414062</ele>
        <time>2017-01-28T11:23:54Z</time>
      </trkpt>
      <trkpt lat="45.31062" lon="5.83326">
        <ele>1671.4399414062</ele>
        <time>2017-01-28T11:24:06Z</time>
      </trkpt>
      <trkpt lat="45.3106" lon="5.83336">
        <ele>1673.4399414062</ele>
        <time>2017-01-28T11:24:12Z</time>
      </trkpt>
      <trkpt lat="45.31061" lon="5.83348">
        <ele>1680.4399414062</ele>
        <time>2017-01-28T11:24:21Z</time>
      </trkpt>
      <trkpt lat="45.31068" lon="5.83347">
        <ele>1681.4399414062</ele>
        <time>2017-01-28T11:24:33Z</time>
      </trkpt>
      <trkpt lat="45.31072" lon="5.83357">
        <ele>1689.4399414062</ele>
        <time>2017-01-28T11:24:49Z</time>
      </trkpt>
      <trkpt lat="45.31073" lon="5.83367">
        <ele>1690.4399414062</ele>
        <time>2017-01-28T11:25:06Z</time>
      </trkpt>
      <trkpt lat="45.31072" lon="5.83377">
        <ele>1692.4399414062</ele>
        <time>2017-01-28T11:25:14Z</time>
      </trkpt>
      <trkpt lat="45.31072" lon="5.83388">
        <ele>1698.4399414062</ele>
        <time>2017-01-28T11:25:23Z</time>
      </trkpt>
      <trkpt lat="45.31072" lon="5.83399">
        <ele>1701.4399414062</ele>
        <time>2017-01-28T11:25:31Z</time>
      </trkpt>
      <trkpt lat="45.3108" lon="5.83399">
        <ele>1703.4399414062</ele>
        <time>2017-01-28T11:25:48Z</time>
      </trkpt>
      <trkpt lat="45.31087" lon="5.83402">
        <ele>1703.4399414062</ele>
        <time>2017-01-28T11:26:02Z</time>
      </trkpt>
      <trkpt lat="45.31091" lon="5.83413">
        <ele>1705.4399414062</ele>
        <time>2017-01-28T11:26:16Z</time>
      </trkpt>
      <trkpt lat="45.31095" lon="5.83422">
        <ele>1706.4399414062</ele>
        <time>2017-01-28T11:26:32Z</time>
      </trkpt>
      <trkpt lat="45.31103" lon="5.83424">
        <ele>1710.4399414062</ele>
        <time>2017-01-28T11:27:16Z</time>
      </trkpt>
      <trkpt lat="45.31109" lon="5.83429">
        <ele>1714.4399414062</ele>
        <time>2017-01-28T11:27:26Z</time>
      </trkpt>
      <trkpt lat="45.31115" lon="5.83437">
        <ele>1719.4399414062</ele>
        <time>2017-01-28T11:27:48Z</time>
      </trkpt>
      <trkpt lat="45.31122" lon="5.83441">
        <ele>1721.4399414062</ele>
        <time>2017-01-28T11:28:04Z</time>
      </trkpt>
      <trkpt lat="45.31116" lon="5.83449">
        <ele>1727.4399414062</ele>
        <time>2017-01-28T11:28:20Z</time>
      </trkpt>
      <trkpt lat="45.31113" lon="5.83459">
        <ele>1729.4399414062</ele>
        <time>2017-01-28T11:28:28Z</time>
      </trkpt>
      <trkpt lat="45.3111" lon="5.83469">
        <ele>1722.4399414062</ele>
        <time>2017-01-28T11:28:41Z</time>
      </trkpt>
      <trkpt lat="45.31107" lon="5.83478">
        <ele>1733.4399414062</ele>
        <time>2017-01-28T11:28:57Z</time>
      </trkpt>
      <trkpt lat="45.31113" lon="5.83485">
        <ele>1738.4399414062</ele>
        <time>2017-01-28T11:29:24Z</time>
      </trkpt>
      <trkpt lat="45.3111" lon="5.83495">
        <ele>1741.4399414062</ele>
        <time>2017-01-28T11:29:36Z</time>
      </trkpt>
      <trkpt lat="45.31115" lon="5.83504">
        <ele>1745.4399414062</ele>
        <time>2017-01-28T11:29:57Z</time>
      </trkpt>
      <trkpt lat="45.31113" lon="5.83516">
        <ele>1751.4399414062</ele>
        <time>2017-01-28T11:30:17Z</time>
      </trkpt>
      <trkpt lat="45.31116" lon="5.83526">
        <ele>1757.4399414062</ele>
        <time>2017-01-28T11:30:41Z</time>
      </trkpt>
      <trkpt lat="45.31115" lon="5.83536">
        <ele>1762.4399414062</ele>
        <time>2017-01-28T11:30:53Z</time>
      </trkpt>
      <trkpt lat="45.31115" lon="5.83552">
        <ele>1760.4399414062</ele>
        <time>2017-01-28T11:31:55Z</time>
      </trkpt>
      <trkpt lat="45.31109" lon="5.83562">
        <ele>1753.4399414062</ele>
        <time>2017-01-28T11:32:08Z</time>
      </trkpt>
      <trkpt lat="45.31097" lon="5.83583">
        <ele>1745.4399414062</ele>
        <time>2017-01-28T11:32:15Z</time>
      </trkpt>
      <trkpt lat="45.31097" lon="5.83607">
        <ele>1736.4399414062</ele>
        <time>2017-01-28T11:32:20Z</time>
      </trkpt>
      <trkpt lat="45.31085" lon="5.83618">
        <ele>1728.4399414062</ele>
        <time>2017-01-28T11:32:26Z</time>
      </trkpt>
      <trkpt lat="45.3108" lon="5.83629">
        <ele>1725.4399414062</ele>
        <time>2017-01-28T11:32:32Z</time>
      </trkpt>
      <trkpt lat="45.31065" lon="5.8364">
        <ele>1719.4399414062</ele>
        <time>2017-01-28T11:32:38Z</time>
      </trkpt>
      <trkpt lat="45.31061" lon="5.83655">
        <ele>1708.4399414062</ele>
        <time>2017-01-28T11:32:44Z</time>
      </trkpt>
      <trkpt lat="45.31051" lon="5.83655">
        <ele>1708.4399414062</ele>
        <time>2017-01-28T11:32:46Z</time>
      </trkpt>
      <trkpt lat="45.31024" lon="5.83649">
        <ele>1705.4399414062</ele>
        <time>2017-01-28T11:32:52Z</time>
      </trkpt>
      <trkpt lat="45.31019" lon="5.83664">
        <ele>1698.4399414062</ele>
        <time>2017-01-28T11:32:57Z</time>
      </trkpt>
      <trkpt lat="45.3103" lon="5.83671">
        <ele>1697.4399414062</ele>
        <time>2017-01-28T11:32:58Z</time>
      </trkpt>
      <trkpt lat="45.31025" lon="5.83696">
        <ele>1690.4399414062</ele>
        <time>2017-01-28T11:33:03Z</time>
      </trkpt>
      <trkpt lat="45.31017" lon="5.83708">
        <ele>1685.4399414062</ele>
        <time>2017-01-28T11:33:08Z</time>
      </trkpt>
      <trkpt lat="45.31018" lon="5.83731">
        <ele>1676.4399414062</ele>
        <time>2017-01-28T11:33:13Z</time>
      </trkpt>
      <trkpt lat="45.31003" lon="5.83719">
        <ele>1672.4399414062</ele>
        <time>2017-01-28T11:33:17Z</time>
      </trkpt>
      <trkpt lat="45.30986" lon="5.83723">
        <ele>1665.4399414062</ele>
        <time>2017-01-28T11:33:22Z</time>
      </trkpt>
      <trkpt lat="45.30978" lon="5.83724">
        <ele>1660.4399414062</ele>
        <time>2017-01-28T11:33:25Z</time>
      </trkpt>
      <trkpt lat="45.3098" lon="5.8375">
        <ele>1650.4399414062</ele>
        <time>2017-01-28T11:33:31Z</time>
      </trkpt>
      <trkpt lat="45.31003" lon="5.83782">
        <ele>1647.4399414062</ele>
        <time>2017-01-28T11:33:36Z</time>
      </trkpt>
      <trkpt lat="45.31024" lon="5.83813">
        <ele>1637.4399414062</ele>
        <time>2017-01-28T11:33:42Z</time>
      </trkpt>
      <trkpt lat="45.31012" lon="5.83834">
        <ele>1622.4399414062</ele>
        <time>2017-01-28T11:33:54Z</time>
      </trkpt>
      <trkpt lat="45.31012" lon="5.83866">
        <ele>1610.4399414062</ele>
        <time>2017-01-28T11:34:00Z</time>
      </trkpt>
      <trkpt lat="45.31014" lon="5.83892">
        <ele>1605.4399414062</ele>
        <time>2017-01-28T11:34:06Z</time>
      </trkpt>
      <trkpt lat="45.31022" lon="5.839">
        <ele>1605.4399414062</ele>
        <time>2017-01-28T11:34:08Z</time>
      </trkpt>
      <trkpt lat="45.31019" lon="5.83921">
        <ele>1594.4399414062</ele>
        <time>2017-01-28T11:34:13Z</time>
      </trkpt>
      <trkpt lat="45.31009" lon="5.83942">
        <ele>1583.4399414062</ele>
        <time>2017-01-28T11:34:18Z</time>
      </trkpt>
      <trkpt lat="45.31003" lon="5.83953">
        <ele>1582.4399414062</ele>
        <time>2017-01-28T11:34:29Z</time>
      </trkpt>
      <trkpt lat="45.31018" lon="5.83998">
        <ele>1575.4410400391</ele>
        <time>2017-01-28T11:34:35Z</time>
      </trkpt>
      <trkpt lat="45.31026" lon="5.84019">
        <ele>1572.4410400391</ele>
        <time>2017-01-28T11:34:48Z</time>
      </trkpt>
      <trkpt lat="45.31016" lon="5.84027">
        <ele>1567.4410400391</ele>
        <time>2017-01-28T11:34:50Z</time>
      </trkpt>
      <trkpt lat="45.30996" lon="5.84065">
        <ele>1555.4410400391</ele>
        <time>2017-01-28T11:34:56Z</time>
      </trkpt>
      <trkpt lat="45.30979" lon="5.84103">
        <ele>1547.4410400391</ele>
        <time>2017-01-28T11:35:01Z</time>
      </trkpt>
      <trkpt lat="45.30965" lon="5.84092">
        <ele>1545.4410400391</ele>
        <time>2017-01-28T11:35:03Z</time>
      </trkpt>
      <trkpt lat="45.30938" lon="5.84074">
        <ele>1539.4399414062</ele>
        <time>2017-01-28T11:35:09Z</time>
      </trkpt>
      <trkpt lat="45.30929" lon="5.84075">
        <ele>1538.4399414062</ele>
        <time>2017-01-28T11:35:11Z</time>
      </trkpt>
      <trkpt lat="45.30922" lon="5.84085">
        <ele>1537.4399414062</ele>
        <time>2017-01-28T11:35:12Z</time>
      </trkpt>
      <trkpt lat="45.30916" lon="5.84126">
        <ele>1407.4399414062</ele>
        <time>2017-01-28T11:35:18Z</time>
      </trkpt>
      <trkpt lat="45.30917" lon="5.84141">
        <ele>1439.4399414062</ele>
        <time>2017-01-28T11:35:20Z</time>
      </trkpt>
      <trkpt lat="45.3091" lon="5.84165">
        <ele>1486.4410400391</ele>
        <time>2017-01-28T11:35:25Z</time>
      </trkpt>
      <trkpt lat="45.3088" lon="5.84196">
        <ele>1499.4399414062</ele>
        <time>2017-01-28T11:35:31Z</time>
      </trkpt>
      <trkpt lat="45.30854" lon="5.84219">
        <ele>1503.4399414062</ele>
        <time>2017-01-28T11:35:36Z</time>
      </trkpt>
      <trkpt lat="45.30842" lon="5.84222">
        <ele>1504.4399414062</ele>
        <time>2017-01-28T11:35:41Z</time>
      </trkpt>
      <trkpt lat="45.30844" lon="5.84195">
        <ele>1496.4399414062</ele>
        <time>2017-01-28T11:35:46Z</time>
      </trkpt>
      <trkpt lat="45.30845" lon="5.84163">
        <ele>1489.4399414062</ele>
        <time>2017-01-28T11:35:51Z</time>
      </trkpt>
      <trkpt lat="45.30838" lon="5.84132">
        <ele>1484.4399414062</ele>
        <time>2017-01-28T11:35:56Z</time>
      </trkpt>
      <trkpt lat="45.30812" lon="5.84098">
        <ele>1485.4399414062</ele>
        <time>2017-01-28T11:36:02Z</time>
      </trkpt>
      <trkpt lat="45.30804" lon="5.84091">
        <ele>1487.4399414062</ele>
        <time>2017-01-28T11:36:04Z</time>
      </trkpt>
      <trkpt lat="45.30791" lon="5.84103">
        <ele>1481.4399414062</ele>
        <time>2017-01-28T11:36:10Z</time>
      </trkpt>
      <trkpt lat="45.30785" lon="5.84119">
        <ele>1478.4399414062</ele>
        <time>2017-01-28T11:36:11Z</time>
      </trkpt>
      <trkpt lat="45.3076" lon="5.841">
        <ele>1471.4399414062</ele>
        <time>2017-01-28T11:36:17Z</time>
      </trkpt>
      <trkpt lat="45.30745" lon="5.84092">
        <ele>1466.4399414062</ele>
        <time>2017-01-28T11:36:23Z</time>
      </trkpt>
      <trkpt lat="45.30746" lon="5.84102">
        <ele>1464.4399414062</ele>
        <time>2017-01-28T11:36:24Z</time>
      </trkpt>
      <trkpt lat="45.30738" lon="5.84125">
        <ele>1461.4399414062</ele>
        <time>2017-01-28T11:36:29Z</time>
      </trkpt>
      <trkpt lat="45.30726" lon="5.84126">
        <ele>1460.4399414062</ele>
        <time>2017-01-28T11:36:31Z</time>
      </trkpt>
      <trkpt lat="45.30691" lon="5.84138">
        <ele>1453.4399414062</ele>
        <time>2017-01-28T11:36:37Z</time>
      </trkpt>
      <trkpt lat="45.30669" lon="5.84149">
        <ele>1452.4399414062</ele>
        <time>2017-01-28T11:36:42Z</time>
      </trkpt>
      <trkpt lat="45.3063" lon="5.84176">
        <ele>1446.4399414062</ele>
        <time>2017-01-28T11:36:47Z</time>
      </trkpt>
      <trkpt lat="45.30599" lon="5.84188">
        <ele>1437.4399414062</ele>
        <time>2017-01-28T11:36:52Z</time>
      </trkpt>
      <trkpt lat="45.30592" lon="5.84181">
        <ele>1437.4399414062</ele>
        <time>2017-01-28T11:36:55Z</time>
      </trkpt>
      <trkpt lat="45.30598" lon="5.84146">
        <ele>1435.4399414062</ele>
        <time>2017-01-28T11:37:00Z</time>
      </trkpt>
      <trkpt lat="45.306" lon="5.84133">
        <ele>1434.4399414062</ele>
        <time>2017-01-28T11:37:01Z</time>
      </trkpt>
      <trkpt lat="45.30604" lon="5.84112">
        <ele>1435.4399414062</ele>
        <time>2017-01-28T11:37:03Z</time>
      </trkpt>
      <trkpt lat="45.30617" lon="5.84083">
        <ele>1428.4399414062</ele>
        <time>2017-01-28T11:37:08Z</time>
      </trkpt>
      <trkpt lat="45.30607" lon="5.84058">
        <ele>1424.4399414062</ele>
        <time>2017-01-28T11:37:13Z</time>
      </trkpt>
      <trkpt lat="45.30584" lon="5.84039">
        <ele>1421.4399414062</ele>
        <time>2017-01-28T11:37:18Z</time>
      </trkpt>
      <trkpt lat="45.30532" lon="5.84022">
        <ele>1415.4399414062</ele>
        <time>2017-01-28T11:37:23Z</time>
      </trkpt>
      <trkpt lat="45.30525" lon="5.84004">
        <ele>1418.4389648438</ele>
        <time>2017-01-28T11:37:24Z</time>
      </trkpt>
      <trkpt lat="45.30531" lon="5.83999">
        <ele>1418.4399414062</ele>
        <time>2017-01-28T11:37:25Z</time>
      </trkpt>
      <trkpt lat="45.30514" lon="5.83996">
        <ele>1410.4389648438</ele>
        <time>2017-01-28T11:37:31Z</time>
      </trkpt>
      <trkpt lat="45.30508" lon="5.84005">
        <ele>1406.4389648438</ele>
        <time>2017-01-28T11:37:32Z</time>
      </trkpt>
      <trkpt lat="45.30497" lon="5.84005">
        <ele>1406.4389648438</ele>
        <time>2017-01-28T11:37:43Z</time>
      </trkpt>
      <trkpt lat="45.30462" lon="5.83999">
        <ele>1402.4389648438</ele>
        <time>2017-01-28T11:37:49Z</time>
      </trkpt>
      <trkpt lat="45.30422" lon="5.84004">
        <ele>1391.4389648438</ele>
        <time>2017-01-28T11:37:54Z</time>
      </trkpt>
      <trkpt lat="45.30385" lon="5.8399">
        <ele>1385.4389648438</ele>
        <time>2017-01-28T11:37:59Z</time>
      </trkpt>
      <trkpt lat="45.30349" lon="5.8396">
        <ele>1383.4389648438</ele>
        <time>2017-01-28T11:38:04Z</time>
      </trkpt>
      <trkpt lat="45.30332" lon="5.83929">
        <ele>1381.4389648438</ele>
        <time>2017-01-28T11:38:07Z</time>
      </trkpt>
      <trkpt lat="45.30308" lon="5.83926">
        <ele>1377.4389648438</ele>
        <time>2017-01-28T11:38:12Z</time>
      </trkpt>
      <trkpt lat="45.30317" lon="5.83949">
        <ele>1372.4389648438</ele>
        <time>2017-01-28T11:38:15Z</time>
      </trkpt>
      <trkpt lat="45.30328" lon="5.83995">
        <ele>1367.4389648438</ele>
        <time>2017-01-28T11:38:21Z</time>
      </trkpt>
      <trkpt lat="45.30319" lon="5.84036">
        <ele>1369.4389648438</ele>
        <time>2017-01-28T11:38:27Z</time>
      </trkpt>
      <trkpt lat="45.30304" lon="5.84039">
        <ele>1369.4389648438</ele>
        <time>2017-01-28T11:38:29Z</time>
      </trkpt>
      <trkpt lat="45.30272" lon="5.83989">
        <ele>1366.4389648438</ele>
        <time>2017-01-28T11:38:35Z</time>
      </trkpt>
      <trkpt lat="45.30267" lon="5.83981">
        <ele>1368.4389648438</ele>
        <time>2017-01-28T11:38:36Z</time>
      </trkpt>
      <trkpt lat="45.30261" lon="5.83972">
        <ele>1365.4389648438</ele>
        <time>2017-01-28T11:38:37Z</time>
      </trkpt>
      <trkpt lat="45.30225" lon="5.83946">
        <ele>1355.4389648438</ele>
        <time>2017-01-28T11:38:42Z</time>
      </trkpt>
      <trkpt lat="45.30217" lon="5.83942">
        <ele>1354.4389648438</ele>
        <time>2017-01-28T11:38:43Z</time>
      </trkpt>
      <trkpt lat="45.30185" lon="5.83942">
        <ele>1351.4389648438</ele>
        <time>2017-01-28T11:38:47Z</time>
      </trkpt>
      <trkpt lat="45.3015" lon="5.83945">
        <ele>1344.4389648438</ele>
        <time>2017-01-28T11:38:52Z</time>
      </trkpt>
      <trkpt lat="45.30142" lon="5.83947">
        <ele>1341.4389648438</ele>
        <time>2017-01-28T11:38:53Z</time>
      </trkpt>
      <trkpt lat="45.30139" lon="5.8396">
        <ele>1333.4389648438</ele>
        <time>2017-01-28T11:38:58Z</time>
      </trkpt>
      <trkpt lat="45.30155" lon="5.83965">
        <ele>1333.4389648438</ele>
        <time>2017-01-28T11:39:00Z</time>
      </trkpt>
      <trkpt lat="45.30179" lon="5.8398">
        <ele>1331.4389648438</ele>
        <time>2017-01-28T11:39:05Z</time>
      </trkpt>
      <trkpt lat="45.30206" lon="5.84019">
        <ele>1332.4389648438</ele>
        <time>2017-01-28T11:39:10Z</time>
      </trkpt>
      <trkpt lat="45.30236" lon="5.84062">
        <ele>1333.4389648438</ele>
        <time>2017-01-28T11:39:15Z</time>
      </trkpt>
      <trkpt lat="45.30227" lon="5.84101">
        <ele>1332.4389648438</ele>
        <time>2017-01-28T11:39:20Z</time>
      </trkpt>
      <trkpt lat="45.30217" lon="5.84104">
        <ele>1330.4389648438</ele>
        <time>2017-01-28T11:39:21Z</time>
      </trkpt>
      <trkpt lat="45.30207" lon="5.84106">
        <ele>1330.4389648438</ele>
        <time>2017-01-28T11:39:22Z</time>
      </trkpt>
      <trkpt lat="45.30206" lon="5.84096">
        <ele>1329.4389648438</ele>
        <time>2017-01-28T11:39:23Z</time>
      </trkpt>
      <trkpt lat="45.30207" lon="5.8408">
        <ele>1328.4389648438</ele>
        <time>2017-01-28T11:39:25Z</time>
      </trkpt>
      <trkpt lat="45.30188" lon="5.84044">
        <ele>1324.4389648438</ele>
        <time>2017-01-28T11:39:30Z</time>
      </trkpt>
      <trkpt lat="45.30145" lon="5.84057">
        <ele>1322.4389648438</ele>
        <time>2017-01-28T11:39:35Z</time>
      </trkpt>
      <trkpt lat="45.30123" lon="5.84067">
        <ele>1323.4389648438</ele>
        <time>2017-01-28T11:39:37Z</time>
      </trkpt>
      <trkpt lat="45.30115" lon="5.84061">
        <ele>1324.4389648438</ele>
        <time>2017-01-28T11:39:38Z</time>
      </trkpt>
      <trkpt lat="45.30104" lon="5.84065">
        <ele>1323.4389648438</ele>
        <time>2017-01-28T11:39:39Z</time>
      </trkpt>
      <trkpt lat="45.30086" lon="5.8407">
        <ele>1319.4389648438</ele>
        <time>2017-01-28T11:39:41Z</time>
      </trkpt>
      <trkpt lat="45.30077" lon="5.8407">
        <ele>1318.4389648438</ele>
        <time>2017-01-28T11:39:42Z</time>
      </trkpt>
      <trkpt lat="45.30067" lon="5.84074">
        <ele>1314.4389648438</ele>
        <time>2017-01-28T11:39:43Z</time>
      </trkpt>
      <trkpt lat="45.30021" lon="5.84085">
        <ele>1309.4389648438</ele>
        <time>2017-01-28T11:39:48Z</time>
      </trkpt>
      <trkpt lat="45.29973" lon="5.84076">
        <ele>1304.4379882812</ele>
        <time>2017-01-28T11:39:53Z</time>
      </trkpt>
      <trkpt lat="45.29936" lon="5.84077">
        <ele>1300.4379882812</ele>
        <time>2017-01-28T11:39:59Z</time>
      </trkpt>
      <trkpt lat="45.29955" lon="5.84101">
        <ele>1300.4379882812</ele>
        <time>2017-01-28T11:40:04Z</time>
      </trkpt>
      <trkpt lat="45.29983" lon="5.84138">
        <ele>1296.4389648438</ele>
        <time>2017-01-28T11:40:10Z</time>
      </trkpt>
      <trkpt lat="45.29988" lon="5.84149">
        <ele>1295.4389648438</ele>
        <time>2017-01-28T11:40:11Z</time>
      </trkpt>
      <trkpt lat="45.29991" lon="5.84178">
        <ele>1295.4389648438</ele>
        <time>2017-01-28T11:40:13Z</time>
      </trkpt>
      <trkpt lat="45.29996" lon="5.84197">
        <ele>1297.4389648438</ele>
        <time>2017-01-28T11:40:14Z</time>
      </trkpt>
      <trkpt lat="45.30007" lon="5.842">
        <ele>1296.4389648438</ele>
        <time>2017-01-28T11:40:15Z</time>
      </trkpt>
      <trkpt lat="45.29981" lon="5.84216">
        <ele>1288.4389648438</ele>
        <time>2017-01-28T11:40:19Z</time>
      </trkpt>
      <trkpt lat="45.29969" lon="5.84225">
        <ele>1284.4389648438</ele>
        <time>2017-01-28T11:40:22Z</time>
      </trkpt>
      <trkpt lat="45.29963" lon="5.84231">
        <ele>1282.4389648438</ele>
        <time>2017-01-28T11:40:23Z</time>
      </trkpt>
      <trkpt lat="45.29932" lon="5.84259">
        <ele>1274.4389648438</ele>
        <time>2017-01-28T11:40:28Z</time>
      </trkpt>
      <trkpt lat="45.299" lon="5.84292">
        <ele>1269.4389648438</ele>
        <time>2017-01-28T11:40:33Z</time>
      </trkpt>
      <trkpt lat="45.2987" lon="5.84323">
        <ele>1264.4389648438</ele>
        <time>2017-01-28T11:40:38Z</time>
      </trkpt>
      <trkpt lat="45.29831" lon="5.84363">
        <ele>1259.4389648438</ele>
        <time>2017-01-28T11:40:43Z</time>
      </trkpt>
      <trkpt lat="45.29807" lon="5.84381">
        <ele>1259.4389648438</ele>
        <time>2017-01-28T11:40:46Z</time>
      </trkpt>
      <trkpt lat="45.29798" lon="5.84385">
        <ele>1255.4389648438</ele>
        <time>2017-01-28T11:40:49Z</time>
      </trkpt>
      <trkpt lat="45.29779" lon="5.84395">
        <ele>1250.4379882812</ele>
        <time>2017-01-28T11:40:55Z</time>
      </trkpt>
      <trkpt lat="45.29765" lon="5.84409">
        <ele>1243.4379882812</ele>
        <time>2017-01-28T11:41:02Z</time>
      </trkpt>
      <trkpt lat="45.29749" lon="5.84423">
        <ele>1242.4379882812</ele>
        <time>2017-01-28T11:41:08Z</time>
      </trkpt>
      <trkpt lat="45.29734" lon="5.84431">
        <ele>1239.4379882812</ele>
        <time>2017-01-28T11:41:14Z</time>
      </trkpt>
      <trkpt lat="45.29719" lon="5.84442">
        <ele>1238.4379882812</ele>
        <time>2017-01-28T11:41:19Z</time>
      </trkpt>
      <trkpt lat="45.29712" lon="5.84449">
        <ele>1232.4379882812</ele>
        <time>2017-01-28T11:41:22Z</time>
      </trkpt>
      <trkpt lat="45.29695" lon="5.84462">
        <ele>1224.4379882812</ele>
        <time>2017-01-28T11:41:28Z</time>
      </trkpt>
      <trkpt lat="45.29682" lon="5.84481">
        <ele>1222.4379882812</ele>
        <time>2017-01-28T11:41:47Z</time>
      </trkpt>
      <trkpt lat="45.29674" lon="5.845">
        <ele>1221.4379882812</ele>
        <time>2017-01-28T11:41:56Z</time>
      </trkpt>
      <trkpt lat="45.29661" lon="5.84515">
        <ele>1221.4379882812</ele>
        <time>2017-01-28T11:42:05Z</time>
      </trkpt>
      <trkpt lat="45.29655" lon="5.84523">
        <ele>1223.4379882812</ele>
        <time>2017-01-28T11:42:19Z</time>
      </trkpt>
      <trkpt lat="45.29649" lon="5.8453">
        <ele>1225.4379882812</ele>
        <time>2017-01-28T11:42:30Z</time>
      </trkpt>
    </trkseg>
  </trk>
</gpx>